<?xml version="1.0" encoding="UTF-8" standalone="no" ?>
<gpx xmlns="http://www.topografix.com/GPX/1/1" creator="MapSource 6.16.3" version="1.1" xmlns:xsi="http://www.w3.org/2001/XMLSchema-instance" xsi:schemaLocation="http://www.topografix.com/GPX/1/1 http://www.topografix.com/GPX/1/1/gpx.xsd">

  <metadata>
    <link href="http://www.garmin.com">
      <text>Garmin International</text>
    </link>
    <time>2013-08-13T22:11:52Z</time>
    <bounds maxlat="27.953599970787764" maxlon="-15.66400601528585" minlat="27.91880602017045" minlon="-15.73409398086369"/>
  </metadata>

  <trk>
    <name>2013-03-12T10_0</name>
    <trkseg>
      <trkpt lat="27.927685976028442" lon="-15.677741020917892">
        <ele>975.32500000000005</ele>
        <time>2013-03-12T12:52:55Z</time>
      </trkpt>
      <trkpt lat="27.927922010421753" lon="-15.677793994545937">
        <ele>977.27300000000002</ele>
        <time>2013-03-12T12:53:11Z</time>
      </trkpt>
      <trkpt lat="27.928159972652793" lon="-15.677851997315884">
        <ele>980.28300000000002</ele>
        <time>2013-03-12T12:53:25Z</time>
      </trkpt>
      <trkpt lat="27.928434982895851" lon="-15.678061963990331">
        <ele>983.37900000000002</ele>
        <time>2013-03-12T12:53:46Z</time>
      </trkpt>
      <trkpt lat="27.928717033937573" lon="-15.678038997575641">
        <ele>986.44899999999996</ele>
        <time>2013-03-12T12:54:00Z</time>
      </trkpt>
      <trkpt lat="27.929126992821693" lon="-15.677830036729574">
        <ele>989.61099999999999</ele>
        <time>2013-03-12T12:54:20Z</time>
      </trkpt>
      <trkpt lat="27.929443996399641" lon="-15.677880998700857">
        <ele>992.84500000000003</ele>
        <time>2013-03-12T12:54:35Z</time>
      </trkpt>
      <trkpt lat="27.929706014692783" lon="-15.677892984822392">
        <ele>995.87900000000002</ele>
        <time>2013-03-12T12:54:50Z</time>
      </trkpt>
      <trkpt lat="27.929968032985926" lon="-15.678063975647092">
        <ele>998.95899999999995</ele>
        <time>2013-03-12T12:55:05Z</time>
      </trkpt>
      <trkpt lat="27.930181017145514" lon="-15.678342003375292">
        <ele>1002.008</ele>
        <time>2013-03-12T12:55:23Z</time>
      </trkpt>
      <trkpt lat="27.930584019050002" lon="-15.678395982831717">
        <ele>1005.021</ele>
        <time>2013-03-12T12:55:43Z</time>
      </trkpt>
      <trkpt lat="27.930906973779202" lon="-15.678466977551579">
        <ele>1008.075</ele>
        <time>2013-03-12T12:55:59Z</time>
      </trkpt>
      <trkpt lat="27.931473003700376" lon="-15.678435964509845">
        <ele>1009.005</ele>
        <time>2013-03-12T12:56:18Z</time>
      </trkpt>
      <trkpt lat="27.931650029495358" lon="-15.678304033353925">
        <ele>1008.971</ele>
        <time>2013-03-12T12:56:23Z</time>
      </trkpt>
      <trkpt lat="27.931594038382173" lon="-15.677926009520888">
        <ele>1009.361</ele>
        <time>2013-03-12T12:56:34Z</time>
      </trkpt>
      <trkpt lat="27.931594960391521" lon="-15.677296025678515">
        <ele>1011.934</ele>
        <time>2013-03-12T12:56:51Z</time>
      </trkpt>
      <trkpt lat="27.931624967604876" lon="-15.677259983494878">
        <ele>1012.034</ele>
        <time>2013-03-12T12:56:52Z</time>
      </trkpt>
      <trkpt lat="27.931805010885" lon="-15.677158981561661">
        <ele>1011.936</ele>
        <time>2013-03-12T12:56:56Z</time>
      </trkpt>
      <trkpt lat="27.93191003613174" lon="-15.677117994055152">
        <ele>1011.758</ele>
        <time>2013-03-12T12:56:58Z</time>
      </trkpt>
      <trkpt lat="27.93204297311604" lon="-15.676832003518939">
        <ele>1012.428</ele>
        <time>2013-03-12T12:57:06Z</time>
      </trkpt>
      <trkpt lat="27.93212897144258" lon="-15.676502007991076">
        <ele>1015.448</ele>
        <time>2013-03-12T12:57:19Z</time>
      </trkpt>
      <trkpt lat="27.932423008605838" lon="-15.676404023543">
        <ele>1018.636</ele>
        <time>2013-03-12T12:57:31Z</time>
      </trkpt>
      <trkpt lat="27.932747974991798" lon="-15.676391031593084">
        <ele>1021.775</ele>
        <time>2013-03-12T12:57:45Z</time>
      </trkpt>
      <trkpt lat="27.933089034631848" lon="-15.676413998007774">
        <ele>1024.8430000000001</ele>
        <time>2013-03-12T12:58:00Z</time>
      </trkpt>
      <trkpt lat="27.933568982407451" lon="-15.676493039354682">
        <ele>1027.952</ele>
        <time>2013-03-12T12:58:18Z</time>
      </trkpt>
      <trkpt lat="27.934121014550328" lon="-15.676760002970695">
        <ele>1030.9670000000001</ele>
        <time>2013-03-12T12:58:40Z</time>
      </trkpt>
      <trkpt lat="27.934515969827771" lon="-15.676653971895576">
        <ele>1032.8209999999999</ele>
        <time>2013-03-12T12:58:55Z</time>
      </trkpt>
      <trkpt lat="27.934500966221094" lon="-15.676477029919624">
        <ele>1033.53</ele>
        <time>2013-03-12T12:59:01Z</time>
      </trkpt>
      <trkpt lat="27.934311032295227" lon="-15.676192967221141">
        <ele>1036.8389999999999</ele>
        <time>2013-03-12T12:59:15Z</time>
      </trkpt>
      <trkpt lat="27.934182034805417" lon="-15.675856014713645">
        <ele>1039.855</ele>
        <time>2013-03-12T12:59:30Z</time>
      </trkpt>
      <trkpt lat="27.934136018157005" lon="-15.675433985888958">
        <ele>1042.95</ele>
        <time>2013-03-12T12:59:46Z</time>
      </trkpt>
      <trkpt lat="27.934142975136638" lon="-15.674963006749749">
        <ele>1046.0899999999999</ele>
        <time>2013-03-12T13:00:03Z</time>
      </trkpt>
      <trkpt lat="27.9342329967767" lon="-15.674593029543757">
        <ele>1049.1769999999999</ele>
        <time>2013-03-12T13:00:19Z</time>
      </trkpt>
      <trkpt lat="27.934028981253505" lon="-15.674483980983496">
        <ele>1052.2329999999999</ele>
        <time>2013-03-12T13:00:31Z</time>
      </trkpt>
      <trkpt lat="27.933861007913947" lon="-15.674247024580836">
        <ele>1055.2850000000001</ele>
        <time>2013-03-12T13:00:45Z</time>
      </trkpt>
      <trkpt lat="27.93369697406888" lon="-15.674138981848955">
        <ele>1058.3109999999999</ele>
        <time>2013-03-12T13:00:57Z</time>
      </trkpt>
      <trkpt lat="27.93343797326088" lon="-15.67421399988234">
        <ele>1061.423</ele>
        <time>2013-03-12T13:01:11Z</time>
      </trkpt>
      <trkpt lat="27.933204034343362" lon="-15.674035968258977">
        <ele>1064.518</ele>
        <time>2013-03-12T13:01:26Z</time>
      </trkpt>
      <trkpt lat="27.932927012443542" lon="-15.673933960497379">
        <ele>1067.5319999999999</ele>
        <time>2013-03-12T13:01:41Z</time>
      </trkpt>
      <trkpt lat="27.932995995506644" lon="-15.673617040738463">
        <ele>1070.3320000000001</ele>
        <time>2013-03-12T13:02:00Z</time>
      </trkpt>
      <trkpt lat="27.933349041268229" lon="-15.673737991601229">
        <ele>1073.3510000000001</ele>
        <time>2013-03-12T13:02:17Z</time>
      </trkpt>
      <trkpt lat="27.933539981022477" lon="-15.673673031851649">
        <ele>1075.644</ele>
        <time>2013-03-12T13:02:28Z</time>
      </trkpt>
      <trkpt lat="27.933472003787756" lon="-15.673553002998233">
        <ele>1077.098</ele>
        <time>2013-03-12T13:02:35Z</time>
      </trkpt>
      <trkpt lat="27.933170003816485" lon="-15.673406990244985">
        <ele>1080.248</ele>
        <time>2013-03-12T13:02:51Z</time>
      </trkpt>
      <trkpt lat="27.933040000498295" lon="-15.673099961131811">
        <ele>1083.3299999999999</ele>
        <time>2013-03-12T13:03:06Z</time>
      </trkpt>
      <trkpt lat="27.932997001335025" lon="-15.673024021089077">
        <ele>1084.2149999999999</ele>
        <time>2013-03-12T13:03:10Z</time>
      </trkpt>
      <trkpt lat="27.932732971385121" lon="-15.672848001122475">
        <ele>1087.3779999999999</ele>
        <time>2013-03-12T13:03:25Z</time>
      </trkpt>
      <trkpt lat="27.93255602940917" lon="-15.672554969787598">
        <ele>1090.5550000000001</ele>
        <time>2013-03-12T13:03:40Z</time>
      </trkpt>
      <trkpt lat="27.932411022484303" lon="-15.672311978414655">
        <ele>1093.6110000000001</ele>
        <time>2013-03-12T13:03:53Z</time>
      </trkpt>
      <trkpt lat="27.932259980589151" lon="-15.672049038112164">
        <ele>1096.723</ele>
        <time>2013-03-12T13:04:07Z</time>
      </trkpt>
      <trkpt lat="27.932113967835903" lon="-15.67167897708714">
        <ele>1099.915</ele>
        <time>2013-03-12T13:04:27Z</time>
      </trkpt>
      <trkpt lat="27.932273978367448" lon="-15.671708984300494">
        <ele>1102.4549999999999</ele>
        <time>2013-03-12T13:04:37Z</time>
      </trkpt>
      <trkpt lat="27.93249299749732" lon="-15.671907970681787">
        <ele>1105.663</ele>
        <time>2013-03-12T13:04:52Z</time>
      </trkpt>
      <trkpt lat="27.932721991091967" lon="-15.672082984820008">
        <ele>1108.7139999999999</ele>
        <time>2013-03-12T13:05:06Z</time>
      </trkpt>
      <trkpt lat="27.933018039911985" lon="-15.672217011451721">
        <ele>1111.3589999999999</ele>
        <time>2013-03-12T13:05:23Z</time>
      </trkpt>
      <trkpt lat="27.932876972481608" lon="-15.672002015635371">
        <ele>1114.3430000000001</ele>
        <time>2013-03-12T13:05:37Z</time>
      </trkpt>
      <trkpt lat="27.932853000238538" lon="-15.671966979280114">
        <ele>1114.973</ele>
        <time>2013-03-12T13:05:39Z</time>
      </trkpt>
      <trkpt lat="27.932748980820179" lon="-15.671717030927539">
        <ele>1118.048</ele>
        <time>2013-03-12T13:05:51Z</time>
      </trkpt>
      <trkpt lat="27.93287998996675" lon="-15.671346969902515">
        <ele>1121.163</ele>
        <time>2013-03-12T13:06:08Z</time>
      </trkpt>
      <trkpt lat="27.933016028255224" lon="-15.671068020164967">
        <ele>1124.422</ele>
        <time>2013-03-12T13:06:22Z</time>
      </trkpt>
      <trkpt lat="27.933110995218158" lon="-15.670756967738271">
        <ele>1127.491</ele>
        <time>2013-03-12T13:06:37Z</time>
      </trkpt>
      <trkpt lat="27.933374019339681" lon="-15.670613972470164">
        <ele>1130.752</ele>
        <time>2013-03-12T13:06:53Z</time>
      </trkpt>
      <trkpt lat="27.933597983792424" lon="-15.670587988570333">
        <ele>1134.008</ele>
        <time>2013-03-12T13:07:06Z</time>
      </trkpt>
      <trkpt lat="27.933800993487239" lon="-15.670476006343961">
        <ele>1137.135</ele>
        <time>2013-03-12T13:07:19Z</time>
      </trkpt>
      <trkpt lat="27.933817002922297" lon="-15.670132013037801">
        <ele>1140.26</ele>
        <time>2013-03-12T13:07:37Z</time>
      </trkpt>
      <trkpt lat="27.933867964893579" lon="-15.669796988368034">
        <ele>1143.452</ele>
        <time>2013-03-12T13:07:54Z</time>
      </trkpt>
      <trkpt lat="27.934111040085554" lon="-15.669691041111946">
        <ele>1146.4780000000001</ele>
        <time>2013-03-12T13:08:09Z</time>
      </trkpt>
      <trkpt lat="27.93434196151793" lon="-15.669665979221463">
        <ele>1149.5820000000001</ele>
        <time>2013-03-12T13:08:22Z</time>
      </trkpt>
      <trkpt lat="27.934608003124595" lon="-15.669534970074892">
        <ele>1152.7840000000001</ele>
        <time>2013-03-12T13:08:38Z</time>
      </trkpt>
      <trkpt lat="27.934829033911228" lon="-15.669428016990423">
        <ele>1155.826</ele>
        <time>2013-03-12T13:08:52Z</time>
      </trkpt>
      <trkpt lat="27.934869015589356" lon="-15.669191982597113">
        <ele>1158.9259999999999</ele>
        <time>2013-03-12T13:09:06Z</time>
      </trkpt>
      <trkpt lat="27.934844037517905" lon="-15.668877996504307">
        <ele>1162.0229999999999</ele>
        <time>2013-03-12T13:09:22Z</time>
      </trkpt>
      <trkpt lat="27.934881001710892" lon="-15.668565016239882">
        <ele>1165.058</ele>
        <time>2013-03-12T13:09:36Z</time>
      </trkpt>
      <trkpt lat="27.935081999748945" lon="-15.668237032368779">
        <ele>1168.1559999999999</ele>
        <time>2013-03-12T13:09:55Z</time>
      </trkpt>
      <trkpt lat="27.935253996402025" lon="-15.668051959946752">
        <ele>1171.193</ele>
        <time>2013-03-12T13:10:08Z</time>
      </trkpt>
      <trkpt lat="27.935339994728565" lon="-15.667729005217552">
        <ele>1174.25</ele>
        <time>2013-03-12T13:10:24Z</time>
      </trkpt>
      <trkpt lat="27.935549961403012" lon="-15.667458018288016">
        <ele>1174.5129999999999</ele>
        <time>2013-03-12T13:10:38Z</time>
      </trkpt>
      <trkpt lat="27.935688011348248" lon="-15.667413007467985">
        <ele>1174.028</ele>
        <time>2013-03-12T13:10:41Z</time>
      </trkpt>
      <trkpt lat="27.935942988842726" lon="-15.667154006659985">
        <ele>1172.404</ele>
        <time>2013-03-12T13:10:47Z</time>
      </trkpt>
      <trkpt lat="27.936150021851063" lon="-15.666831973940134">
        <ele>1170.165</ele>
        <time>2013-03-12T13:10:52Z</time>
      </trkpt>
      <trkpt lat="27.936196960508823" lon="-15.666353031992912">
        <ele>1169.2639999999999</ele>
        <time>2013-03-12T13:11:01Z</time>
      </trkpt>
      <trkpt lat="27.936453027650714" lon="-15.66628597676754">
        <ele>1172.414</ele>
        <time>2013-03-12T13:11:13Z</time>
      </trkpt>
      <trkpt lat="27.93715400621295" lon="-15.666340962052345">
        <ele>1173.7570000000001</ele>
        <time>2013-03-12T13:11:36Z</time>
      </trkpt>
      <trkpt lat="27.9375209659338" lon="-15.666387984529138">
        <ele>1172.376</ele>
        <time>2013-03-12T13:11:43Z</time>
      </trkpt>
      <trkpt lat="27.937811985611916" lon="-15.666570961475372">
        <ele>1170.5260000000001</ele>
        <time>2013-03-12T13:11:48Z</time>
      </trkpt>
      <trkpt lat="27.937909970059991" lon="-15.666685961186886">
        <ele>1169.683</ele>
        <time>2013-03-12T13:11:50Z</time>
      </trkpt>
      <trkpt lat="27.938068974763155" lon="-15.667040012776852">
        <ele>1168.114</ele>
        <time>2013-03-12T13:11:55Z</time>
      </trkpt>
      <trkpt lat="27.938438029959798" lon="-15.667199017480016">
        <ele>1165.3499999999999</ele>
        <time>2013-03-12T13:12:03Z</time>
      </trkpt>
      <trkpt lat="27.938545988872647" lon="-15.667151995003223">
        <ele>1164.9069999999999</ele>
        <time>2013-03-12T13:12:05Z</time>
      </trkpt>
      <trkpt lat="27.93915200047195" lon="-15.667279986664653">
        <ele>1161.6800000000001</ele>
        <time>2013-03-12T13:12:14Z</time>
      </trkpt>
      <trkpt lat="27.939231041818857" lon="-15.667285015806556">
        <ele>1161.271</ele>
        <time>2013-03-12T13:12:15Z</time>
      </trkpt>
      <trkpt lat="27.939745020121336" lon="-15.66738098859787">
        <ele>1162.816</ele>
        <time>2013-03-12T13:12:27Z</time>
      </trkpt>
      <trkpt lat="27.940071998164058" lon="-15.667491964995861">
        <ele>1165.8230000000001</ele>
        <time>2013-03-12T13:12:39Z</time>
      </trkpt>
      <trkpt lat="27.940296968445182" lon="-15.667529013007879">
        <ele>1166.4549999999999</ele>
        <time>2013-03-12T13:12:46Z</time>
      </trkpt>
      <trkpt lat="27.940338961780071" lon="-15.667292978614569">
        <ele>1167.03</ele>
        <time>2013-03-12T13:12:54Z</time>
      </trkpt>
      <trkpt lat="27.940028999000788" lon="-15.666774976998568">
        <ele>1170.0609999999999</ele>
        <time>2013-03-12T13:13:14Z</time>
      </trkpt>
      <trkpt lat="27.93977402150631" lon="-15.666535003110766">
        <ele>1173.4580000000001</ele>
        <time>2013-03-12T13:13:29Z</time>
      </trkpt>
      <trkpt lat="27.939593978226185" lon="-15.666310032829642">
        <ele>1176.672</ele>
        <time>2013-03-12T13:13:43Z</time>
      </trkpt>
      <trkpt lat="27.939594984054565" lon="-15.666290000081062">
        <ele>1176.809</ele>
        <time>2013-03-12T13:13:44Z</time>
      </trkpt>
      <trkpt lat="27.939648041501641" lon="-15.666207019239664">
        <ele>1177.4490000000001</ele>
        <time>2013-03-12T13:13:48Z</time>
      </trkpt>
      <trkpt lat="27.939835963770747" lon="-15.665649035945535">
        <ele>1179.5039999999999</ele>
        <time>2013-03-12T13:14:09Z</time>
      </trkpt>
      <trkpt lat="27.940121032297611" lon="-15.665336977690458">
        <ele>1182.578</ele>
        <time>2013-03-12T13:14:27Z</time>
      </trkpt>
      <trkpt lat="27.940157996490598" lon="-15.664935987442732">
        <ele>1185.6890000000001</ele>
        <time>2013-03-12T13:14:44Z</time>
      </trkpt>
      <trkpt lat="27.940138969570398" lon="-15.664616972208023">
        <ele>1188.826</ele>
        <time>2013-03-12T13:14:59Z</time>
      </trkpt>
      <trkpt lat="27.940389001742005" lon="-15.664442963898182">
        <ele>1191.828</ele>
        <time>2013-03-12T13:15:15Z</time>
      </trkpt>
      <trkpt lat="27.940664011985064" lon="-15.664408011361957">
        <ele>1194.99</ele>
        <time>2013-03-12T13:15:30Z</time>
      </trkpt>
      <trkpt lat="27.940957965329289" lon="-15.66458897665143">
        <ele>1197.999</ele>
        <time>2013-03-12T13:15:48Z</time>
      </trkpt>
      <trkpt lat="27.941299024969339" lon="-15.664643961936235">
        <ele>1201.0550000000001</ele>
        <time>2013-03-12T13:16:08Z</time>
      </trkpt>
      <trkpt lat="27.941562971100211" lon="-15.664646979421377">
        <ele>1204.0920000000001</ele>
        <time>2013-03-12T13:16:23Z</time>
      </trkpt>
      <trkpt lat="27.941794982179999" lon="-15.664752004668117">
        <ele>1207.181</ele>
        <time>2013-03-12T13:16:37Z</time>
      </trkpt>
      <trkpt lat="27.942014001309872" lon="-15.664916038513184">
        <ele>1210.279</ele>
        <time>2013-03-12T13:16:52Z</time>
      </trkpt>
      <trkpt lat="27.942302003502846" lon="-15.664872033521533">
        <ele>1213.4079999999999</ele>
        <time>2013-03-12T13:17:08Z</time>
      </trkpt>
      <trkpt lat="27.942563015967607" lon="-15.664767008274794">
        <ele>1216.4670000000001</ele>
        <time>2013-03-12T13:17:24Z</time>
      </trkpt>
      <trkpt lat="27.94282503426075" lon="-15.664689978584647">
        <ele>1219.47</ele>
        <time>2013-03-12T13:17:39Z</time>
      </trkpt>
      <trkpt lat="27.943087974563241" lon="-15.664582019671798">
        <ele>1222.5429999999999</ele>
        <time>2013-03-12T13:17:55Z</time>
      </trkpt>
      <trkpt lat="27.943220995366573" lon="-15.664349002763629">
        <ele>1225.683</ele>
        <time>2013-03-12T13:18:10Z</time>
      </trkpt>
      <trkpt lat="27.943380000069737" lon="-15.664249006658792">
        <ele>1228.7380000000001</ele>
        <time>2013-03-12T13:18:22Z</time>
      </trkpt>
      <trkpt lat="27.943627014756203" lon="-15.664116991683841">
        <ele>1231.9069999999999</ele>
        <time>2013-03-12T13:18:39Z</time>
      </trkpt>
      <trkpt lat="27.943848967552185" lon="-15.66400601528585">
        <ele>1233.7439999999999</ele>
        <time>2013-03-12T13:18:54Z</time>
      </trkpt>
      <trkpt lat="27.9438809864223" lon="-15.664036022499204">
        <ele>1234.317</ele>
        <time>2013-03-12T13:18:58Z</time>
      </trkpt>
      <trkpt lat="27.943913005292416" lon="-15.6640500202775">
        <ele>1234.587</ele>
        <time>2013-03-12T13:19:01Z</time>
      </trkpt>
      <trkpt lat="27.943927003070712" lon="-15.664108023047447">
        <ele>1235.134</ele>
        <time>2013-03-12T13:20:05Z</time>
      </trkpt>
      <trkpt lat="27.943917028605938" lon="-15.664187986403704">
        <ele>1235.5419999999999</ele>
        <time>2013-03-12T13:20:10Z</time>
      </trkpt>
      <trkpt lat="27.943796999752522" lon="-15.664240038022399">
        <ele>1237.297</ele>
        <time>2013-03-12T13:20:19Z</time>
      </trkpt>
      <trkpt lat="27.943658027797937" lon="-15.664272978901863">
        <ele>1239.9739999999999</ele>
        <time>2013-03-12T13:20:52Z</time>
      </trkpt>
      <trkpt lat="27.9436219856143" lon="-15.664300974458456">
        <ele>1239.6320000000001</ele>
        <time>2013-03-12T13:21:14Z</time>
      </trkpt>
      <trkpt lat="27.943444959819317" lon="-15.664433995261788">
        <ele>1240.3620000000001</ele>
        <time>2013-03-12T13:22:51Z</time>
      </trkpt>
      <trkpt lat="27.943438002839684" lon="-15.664442041888833">
        <ele>1240.423</ele>
        <time>2013-03-12T13:22:52Z</time>
      </trkpt>
      <trkpt lat="27.943421993404627" lon="-15.664517981931567">
        <ele>1240.9639999999999</ele>
        <time>2013-03-12T13:23:47Z</time>
      </trkpt>
      <trkpt lat="27.943453006446362" lon="-15.66488997079432">
        <ele>1243.1859999999999</ele>
        <time>2013-03-12T13:24:05Z</time>
      </trkpt>
      <trkpt lat="27.943416964262724" lon="-15.6650619674474">
        <ele>1244.0350000000001</ele>
        <time>2013-03-12T13:24:29Z</time>
      </trkpt>
      <trkpt lat="27.943307999521494" lon="-15.665414007380605">
        <ele>1244.1780000000001</ele>
        <time>2013-03-12T13:24:43Z</time>
      </trkpt>
      <trkpt lat="27.942995019257069" lon="-15.665794964879751">
        <ele>1243.931</ele>
        <time>2013-03-12T13:24:56Z</time>
      </trkpt>
      <trkpt lat="27.942783962935209" lon="-15.666294023394585">
        <ele>1243.5409999999999</ele>
        <time>2013-03-12T13:25:06Z</time>
      </trkpt>
      <trkpt lat="27.942899968475103" lon="-15.666559981182218">
        <ele>1244.3610000000001</ele>
        <time>2013-03-12T13:25:14Z</time>
      </trkpt>
      <trkpt lat="27.943271035328507" lon="-15.666803978383541">
        <ele>1247.4590000000001</ele>
        <time>2013-03-12T13:25:30Z</time>
      </trkpt>
      <trkpt lat="27.943263994529843" lon="-15.667427005246282">
        <ele>1250.471</ele>
        <time>2013-03-12T13:25:50Z</time>
      </trkpt>
      <trkpt lat="27.942943973466754" lon="-15.667665973305702">
        <ele>1250.759</ele>
        <time>2013-03-12T13:26:01Z</time>
      </trkpt>
      <trkpt lat="27.942863004282117" lon="-15.667835036292672">
        <ele>1250.8440000000001</ele>
        <time>2013-03-12T13:26:05Z</time>
      </trkpt>
      <trkpt lat="27.942852023988962" lon="-15.668043997138739">
        <ele>1250.8019999999999</ele>
        <time>2013-03-12T13:26:09Z</time>
      </trkpt>
      <trkpt lat="27.942897034808993" lon="-15.668278019875288">
        <ele>1250.4680000000001</ele>
        <time>2013-03-12T13:26:13Z</time>
      </trkpt>
      <trkpt lat="27.942795027047396" lon="-15.668573984876275">
        <ele>1249.597</ele>
        <time>2013-03-12T13:26:18Z</time>
      </trkpt>
      <trkpt lat="27.942635016515851" lon="-15.668793004006147">
        <ele>1248.74</ele>
        <time>2013-03-12T13:26:22Z</time>
      </trkpt>
      <trkpt lat="27.94267700985074" lon="-15.669024009257555">
        <ele>1247.6859999999999</ele>
        <time>2013-03-12T13:26:26Z</time>
      </trkpt>
      <trkpt lat="27.942842971533537" lon="-15.669211009517312">
        <ele>1246.827</ele>
        <time>2013-03-12T13:26:30Z</time>
      </trkpt>
      <trkpt lat="27.943095015361905" lon="-15.669865971431136">
        <ele>1243.395</ele>
        <time>2013-03-12T13:26:40Z</time>
      </trkpt>
      <trkpt lat="27.943366002291441" lon="-15.66989203915">
        <ele>1241.192</ele>
        <time>2013-03-12T13:26:44Z</time>
      </trkpt>
      <trkpt lat="27.943440014496446" lon="-15.669897990301251">
        <ele>1240.807</ele>
        <time>2013-03-12T13:26:45Z</time>
      </trkpt>
      <trkpt lat="27.943738996982574" lon="-15.669815009459853">
        <ele>1239.597</ele>
        <time>2013-03-12T13:26:49Z</time>
      </trkpt>
      <trkpt lat="27.94430997222662" lon="-15.669847028329968">
        <ele>1237.1590000000001</ele>
        <time>2013-03-12T13:26:58Z</time>
      </trkpt>
      <trkpt lat="27.94476100243628" lon="-15.670035034418106">
        <ele>1236.799</ele>
        <time>2013-03-12T13:27:08Z</time>
      </trkpt>
      <trkpt lat="27.944667041301727" lon="-15.670381039381027">
        <ele>1237.492</ele>
        <time>2013-03-12T13:27:14Z</time>
      </trkpt>
      <trkpt lat="27.944598980247974" lon="-15.670487992465496">
        <ele>1237.5619999999999</ele>
        <time>2013-03-12T13:27:16Z</time>
      </trkpt>
      <trkpt lat="27.944643991068006" lon="-15.670886971056461">
        <ele>1236.924</ele>
        <time>2013-03-12T13:27:22Z</time>
      </trkpt>
      <trkpt lat="27.944655977189541" lon="-15.670966012403369">
        <ele>1236.7650000000001</ele>
        <time>2013-03-12T13:27:23Z</time>
      </trkpt>
      <trkpt lat="27.94478396885097" lon="-15.671159969642758">
        <ele>1236.1880000000001</ele>
        <time>2013-03-12T13:27:27Z</time>
      </trkpt>
      <trkpt lat="27.944993013516068" lon="-15.671487031504512">
        <ele>1239.415</ele>
        <time>2013-03-12T13:27:38Z</time>
      </trkpt>
      <trkpt lat="27.945197029039264" lon="-15.672392025589943">
        <ele>1241.883</ele>
        <time>2013-03-12T13:28:01Z</time>
      </trkpt>
      <trkpt lat="27.945231981575489" lon="-15.672717997804284">
        <ele>1241.9059999999999</ele>
        <time>2013-03-12T13:28:07Z</time>
      </trkpt>
      <trkpt lat="27.945264000445604" lon="-15.672883037477732">
        <ele>1241.973</ele>
        <time>2013-03-12T13:28:10Z</time>
      </trkpt>
      <trkpt lat="27.945414958521724" lon="-15.673294002190232">
        <ele>1241.568</ele>
        <time>2013-03-12T13:28:18Z</time>
      </trkpt>
      <trkpt lat="27.945630960166454" lon="-15.673896996304393">
        <ele>1243.8589999999999</ele>
        <time>2013-03-12T13:28:35Z</time>
      </trkpt>
      <trkpt lat="27.945699021220207" lon="-15.674569979310036">
        <ele>1244.519</ele>
        <time>2013-03-12T13:28:56Z</time>
      </trkpt>
      <trkpt lat="27.945656022056937" lon="-15.675730034708977">
        <ele>1244.21</ele>
        <time>2013-03-12T13:29:17Z</time>
      </trkpt>
      <trkpt lat="27.945515960454941" lon="-15.676202019676566">
        <ele>1247.463</ele>
        <time>2013-03-12T13:29:30Z</time>
      </trkpt>
      <trkpt lat="27.945365002378821" lon="-15.676587000489235">
        <ele>1250.5840000000001</ele>
        <time>2013-03-12T13:29:43Z</time>
      </trkpt>
      <trkpt lat="27.945175990462303" lon="-15.677029984071851">
        <ele>1253.682</ele>
        <time>2013-03-12T13:29:59Z</time>
      </trkpt>
      <trkpt lat="27.945010028779507" lon="-15.677443966269493">
        <ele>1256.6990000000001</ele>
        <time>2013-03-12T13:30:15Z</time>
      </trkpt>
      <trkpt lat="27.944810958579183" lon="-15.677796006202698">
        <ele>1259.797</ele>
        <time>2013-03-12T13:30:29Z</time>
      </trkpt>
      <trkpt lat="27.94439597055316" lon="-15.678232032805681">
        <ele>1262.913</ele>
        <time>2013-03-12T13:30:50Z</time>
      </trkpt>
      <trkpt lat="27.944080978631973" lon="-15.678734024986625">
        <ele>1265.7670000000001</ele>
        <time>2013-03-12T13:31:09Z</time>
      </trkpt>
      <trkpt lat="27.943920968100429" lon="-15.678778029978275">
        <ele>1265.999</ele>
        <time>2013-03-12T13:31:13Z</time>
      </trkpt>
      <trkpt lat="27.94381502084434" lon="-15.679061003029346">
        <ele>1266.0599999999999</ele>
        <time>2013-03-12T13:31:20Z</time>
      </trkpt>
      <trkpt lat="27.944140993058681" lon="-15.679332995787263">
        <ele>1268.3720000000001</ele>
        <time>2013-03-12T13:31:34Z</time>
      </trkpt>
      <trkpt lat="27.944249035790563" lon="-15.679762987419963">
        <ele>1270.2929999999999</ele>
        <time>2013-03-12T13:31:49Z</time>
      </trkpt>
      <trkpt lat="27.944529997184873" lon="-15.680105974897742">
        <ele>1272.4390000000001</ele>
        <time>2013-03-12T13:32:04Z</time>
      </trkpt>
      <trkpt lat="27.944594034925103" lon="-15.68040101788938">
        <ele>1275.2239999999999</ele>
        <time>2013-03-12T13:32:15Z</time>
      </trkpt>
      <trkpt lat="27.944657988846302" lon="-15.680478969588876">
        <ele>1275.837</ele>
        <time>2013-03-12T13:32:19Z</time>
      </trkpt>
      <trkpt lat="27.944945991039276" lon="-15.680725984275341">
        <ele>1278.8489999999999</ele>
        <time>2013-03-12T13:32:34Z</time>
      </trkpt>
      <trkpt lat="27.945203986018896" lon="-15.681076012551785">
        <ele>1281.9949999999999</ele>
        <time>2013-03-12T13:32:51Z</time>
      </trkpt>
      <trkpt lat="27.945399032905698" lon="-15.681631984189153">
        <ele>1283.548</ele>
        <time>2013-03-12T13:33:08Z</time>
      </trkpt>
      <trkpt lat="27.945584021508694" lon="-15.682161971926689">
        <ele>1286.1179999999999</ele>
        <time>2013-03-12T13:33:25Z</time>
      </trkpt>
      <trkpt lat="27.945863977074623" lon="-15.682618031278253">
        <ele>1289.2429999999999</ele>
        <time>2013-03-12T13:33:42Z</time>
      </trkpt>
      <trkpt lat="27.945978976786137" lon="-15.68282900378108">
        <ele>1290.174</ele>
        <time>2013-03-12T13:33:49Z</time>
      </trkpt>
      <trkpt lat="27.94643796980381" lon="-15.682944003492594">
        <ele>1291.0530000000001</ele>
        <time>2013-03-12T13:34:03Z</time>
      </trkpt>
      <trkpt lat="27.946297992020845" lon="-15.68338799290359">
        <ele>1293.4760000000001</ele>
        <time>2013-03-12T13:34:19Z</time>
      </trkpt>
      <trkpt lat="27.946181986480951" lon="-15.683898031711578">
        <ele>1296.607</ele>
        <time>2013-03-12T13:34:39Z</time>
      </trkpt>
      <trkpt lat="27.946254992857575" lon="-15.684302961453795">
        <ele>1299.7349999999999</ele>
        <time>2013-03-12T13:34:55Z</time>
      </trkpt>
      <trkpt lat="27.946317018941045" lon="-15.684598004445434">
        <ele>1302.973</ele>
        <time>2013-03-12T13:35:09Z</time>
      </trkpt>
      <trkpt lat="27.946261027827859" lon="-15.684991031885147">
        <ele>1306.057</ele>
        <time>2013-03-12T13:35:26Z</time>
      </trkpt>
      <trkpt lat="27.946449033915997" lon="-15.685357991605997">
        <ele>1309.0709999999999</ele>
        <time>2013-03-12T13:35:45Z</time>
      </trkpt>
      <trkpt lat="27.946589011698961" lon="-15.685562007129192">
        <ele>1312.1089999999999</ele>
        <time>2013-03-12T13:35:57Z</time>
      </trkpt>
      <trkpt lat="27.946675010025501" lon="-15.685918992385268">
        <ele>1315.1369999999999</ele>
        <time>2013-03-12T13:36:14Z</time>
      </trkpt>
      <trkpt lat="27.946778023615479" lon="-15.686200959607959">
        <ele>1318.1389999999999</ele>
        <time>2013-03-12T13:36:29Z</time>
      </trkpt>
      <trkpt lat="27.946992013603449" lon="-15.686425007879734">
        <ele>1321.211</ele>
        <time>2013-03-12T13:36:47Z</time>
      </trkpt>
      <trkpt lat="27.947343969717622" lon="-15.686715021729469">
        <ele>1324.261</ele>
        <time>2013-03-12T13:37:10Z</time>
      </trkpt>
      <trkpt lat="27.947615962475538" lon="-15.686881989240646">
        <ele>1327.3399999999999</ele>
        <time>2013-03-12T13:37:27Z</time>
      </trkpt>
      <trkpt lat="27.94791997410357" lon="-15.686710998415947">
        <ele>1330.2349999999999</ele>
        <time>2013-03-12T13:37:46Z</time>
      </trkpt>
      <trkpt lat="27.948259022086859" lon="-15.686746034771204">
        <ele>1333.2829999999999</ele>
        <time>2013-03-12T13:38:05Z</time>
      </trkpt>
      <trkpt lat="27.948538977652788" lon="-15.686772018671036">
        <ele>1336.463</ele>
        <time>2013-03-12T13:38:21Z</time>
      </trkpt>
      <trkpt lat="27.948898980394006" lon="-15.686968993395567">
        <ele>1339.4960000000001</ele>
        <time>2013-03-12T13:38:41Z</time>
      </trkpt>
      <trkpt lat="27.949155969545245" lon="-15.687179965898395">
        <ele>1342.614</ele>
        <time>2013-03-12T13:38:57Z</time>
      </trkpt>
      <trkpt lat="27.949480013921857" lon="-15.687072006985545">
        <ele>1345.6369999999999</ele>
        <time>2013-03-12T13:39:13Z</time>
      </trkpt>
      <trkpt lat="27.949747983366251" lon="-15.687176026403904">
        <ele>1348.73</ele>
        <time>2013-03-12T13:39:27Z</time>
      </trkpt>
      <trkpt lat="27.950062975287437" lon="-15.687390016391873">
        <ele>1351.9380000000001</ele>
        <time>2013-03-12T13:39:46Z</time>
      </trkpt>
      <trkpt lat="27.950269002467394" lon="-15.687446007505059">
        <ele>1355.171</ele>
        <time>2013-03-12T13:39:59Z</time>
      </trkpt>
      <trkpt lat="27.950580976903439" lon="-15.687218019738793">
        <ele>1358.385</ele>
        <time>2013-03-12T13:40:16Z</time>
      </trkpt>
      <trkpt lat="27.950882976874709" lon="-15.687419017776847">
        <ele>1361.597</ele>
        <time>2013-03-12T13:40:35Z</time>
      </trkpt>
      <trkpt lat="27.951041981577873" lon="-15.687628984451294">
        <ele>1364.741</ele>
        <time>2013-03-12T13:40:50Z</time>
      </trkpt>
      <trkpt lat="27.951156981289387" lon="-15.688013965263963">
        <ele>1367.7950000000001</ele>
        <time>2013-03-12T13:41:09Z</time>
      </trkpt>
      <trkpt lat="27.951309029012918" lon="-15.688309008255601">
        <ele>1370.944</ele>
        <time>2013-03-12T13:41:30Z</time>
      </trkpt>
      <trkpt lat="27.951867012307048" lon="-15.688173975795507">
        <ele>1373.9849999999999</ele>
        <time>2013-03-12T13:41:56Z</time>
      </trkpt>
      <trkpt lat="27.95217202976346" lon="-15.688337003812194">
        <ele>1377.0050000000001</ele>
        <time>2013-03-12T13:42:18Z</time>
      </trkpt>
      <trkpt lat="27.952225003391504" lon="-15.688592987135053">
        <ele>1380.1890000000001</ele>
        <time>2013-03-12T13:42:33Z</time>
      </trkpt>
      <trkpt lat="27.952306978404522" lon="-15.688748974353075">
        <ele>1383.3209999999999</ele>
        <time>2013-03-12T13:42:45Z</time>
      </trkpt>
      <trkpt lat="27.95251602306962" lon="-15.688793985173106">
        <ele>1386.4459999999999</ele>
        <time>2013-03-12T13:43:01Z</time>
      </trkpt>
      <trkpt lat="27.952547958120704" lon="-15.688869003206491">
        <ele>1387.5360000000001</ele>
        <time>2013-03-12T13:43:07Z</time>
      </trkpt>
      <trkpt lat="27.952478975057602" lon="-15.688892975449562">
        <ele>1388.6010000000001</ele>
        <time>2013-03-12T13:43:13Z</time>
      </trkpt>
      <trkpt lat="27.952223997563124" lon="-15.688906973227859">
        <ele>1391.605</ele>
        <time>2013-03-12T13:43:33Z</time>
      </trkpt>
      <trkpt lat="27.952012019231915" lon="-15.688746040686965">
        <ele>1394.6759999999999</ele>
        <time>2013-03-12T13:43:50Z</time>
      </trkpt>
      <trkpt lat="27.951816972345114" lon="-15.688655013218522">
        <ele>1397.8050000000001</ele>
        <time>2013-03-12T13:44:06Z</time>
      </trkpt>
      <trkpt lat="27.951846979558468" lon="-15.688759032636881">
        <ele>1399.463</ele>
        <time>2013-03-12T13:44:16Z</time>
      </trkpt>
      <trkpt lat="27.952027022838593" lon="-15.688933962956071">
        <ele>1402.6320000000001</ele>
        <time>2013-03-12T13:44:33Z</time>
      </trkpt>
      <trkpt lat="27.952159959822893" lon="-15.689092967659235">
        <ele>1405.787</ele>
        <time>2013-03-12T13:44:47Z</time>
      </trkpt>
      <trkpt lat="27.952398005872965" lon="-15.689191035926342">
        <ele>1408.825</ele>
        <time>2013-03-12T13:45:04Z</time>
      </trkpt>
      <trkpt lat="27.952618030831218" lon="-15.689260018989444">
        <ele>1412.057</ele>
        <time>2013-03-12T13:45:21Z</time>
      </trkpt>
      <trkpt lat="27.952705034986138" lon="-15.689447019249201">
        <ele>1415.0830000000001</ele>
        <time>2013-03-12T13:45:34Z</time>
      </trkpt>
      <trkpt lat="27.952759014442563" lon="-15.689638964831829">
        <ele>1418.3019999999999</ele>
        <time>2013-03-12T13:45:46Z</time>
      </trkpt>
      <trkpt lat="27.952769994735718" lon="-15.689707025885582">
        <ele>1419.2049999999999</ele>
        <time>2013-03-12T13:45:50Z</time>
      </trkpt>
      <trkpt lat="27.95270998030901" lon="-15.689762011170387">
        <ele>1420.3510000000001</ele>
        <time>2013-03-12T13:45:55Z</time>
      </trkpt>
      <trkpt lat="27.952564973384142" lon="-15.689813978970051">
        <ele>1422.501</ele>
        <time>2013-03-12T13:46:05Z</time>
      </trkpt>
      <trkpt lat="27.952531026676297" lon="-15.689891008660197">
        <ele>1423.5550000000001</ele>
        <time>2013-03-12T13:46:10Z</time>
      </trkpt>
      <trkpt lat="27.952626999467611" lon="-15.690101981163025">
        <ele>1425.99</ele>
        <time>2013-03-12T13:46:24Z</time>
      </trkpt>
      <trkpt lat="27.952519040554762" lon="-15.690103992819786">
        <ele>1427.989</ele>
        <time>2013-03-12T13:46:37Z</time>
      </trkpt>
      <trkpt lat="27.95236598700285" lon="-15.689868964254856">
        <ele>1431.1179999999999</ele>
        <time>2013-03-12T13:46:53Z</time>
      </trkpt>
      <trkpt lat="27.952289963141084" lon="-15.689738960936666">
        <ele>1432.854</ele>
        <time>2013-03-12T13:47:02Z</time>
      </trkpt>
      <trkpt lat="27.952259033918381" lon="-15.68985597230494">
        <ele>1433.8119999999999</ele>
        <time>2013-03-12T13:47:10Z</time>
      </trkpt>
      <trkpt lat="27.952254004776478" lon="-15.689921015873551">
        <ele>1434.5160000000001</ele>
        <time>2013-03-12T13:47:14Z</time>
      </trkpt>
      <trkpt lat="27.952403035014868" lon="-15.690227961167693">
        <ele>1437.729</ele>
        <time>2013-03-12T13:47:34Z</time>
      </trkpt>
      <trkpt lat="27.952519040554762" lon="-15.690370034426451">
        <ele>1440.979</ele>
        <time>2013-03-12T13:47:45Z</time>
      </trkpt>
      <trkpt lat="27.952640997245908" lon="-15.690529961138964">
        <ele>1444.0229999999999</ele>
        <time>2013-03-12T13:47:58Z</time>
      </trkpt>
      <trkpt lat="27.952768988907337" lon="-15.690762978047132">
        <ele>1447.0409999999999</ele>
        <time>2013-03-12T13:48:14Z</time>
      </trkpt>
      <trkpt lat="27.952792961150408" lon="-15.691098002716899">
        <ele>1450.2339999999999</ele>
        <time>2013-03-12T13:48:32Z</time>
      </trkpt>
      <trkpt lat="27.952630016952753" lon="-15.691388016566634">
        <ele>1453.2529999999999</ele>
        <time>2013-03-12T13:48:48Z</time>
      </trkpt>
      <trkpt lat="27.952423989772797" lon="-15.691656991839409">
        <ele>1456.3150000000001</ele>
        <time>2013-03-12T13:49:04Z</time>
      </trkpt>
      <trkpt lat="27.952177980914712" lon="-15.69193703122437">
        <ele>1459.4059999999999</ele>
        <time>2013-03-12T13:49:22Z</time>
      </trkpt>
      <trkpt lat="27.951974971219897" lon="-15.692203994840384">
        <ele>1462.569</ele>
        <time>2013-03-12T13:49:38Z</time>
      </trkpt>
      <trkpt lat="27.952248975634575" lon="-15.692667011171579">
        <ele>1465.6500000000001</ele>
        <time>2013-03-12T13:49:59Z</time>
      </trkpt>
      <trkpt lat="27.952864039689302" lon="-15.692912014201283">
        <ele>1468.3720000000001</ele>
        <time>2013-03-12T13:50:23Z</time>
      </trkpt>
      <trkpt lat="27.953213984146714" lon="-15.693172020837665">
        <ele>1471.519</ele>
        <time>2013-03-12T13:50:40Z</time>
      </trkpt>
      <trkpt lat="27.953502992168069" lon="-15.693710977211595">
        <ele>1474.6320000000001</ele>
        <time>2013-03-12T13:51:00Z</time>
      </trkpt>
      <trkpt lat="27.953599970787764" lon="-15.694263009354472">
        <ele>1476.9549999999999</ele>
        <time>2013-03-12T13:51:19Z</time>
      </trkpt>
      <trkpt lat="27.953285984694958" lon="-15.694748992100358">
        <ele>1480.0509999999999</ele>
        <time>2013-03-12T13:51:39Z</time>
      </trkpt>
      <trkpt lat="27.952983984723687" lon="-15.695106983184814">
        <ele>1483.068</ele>
        <time>2013-03-12T13:51:58Z</time>
      </trkpt>
      <trkpt lat="27.952619036659598" lon="-15.695340000092983">
        <ele>1486.364</ele>
        <time>2013-03-12T13:52:15Z</time>
      </trkpt>
      <trkpt lat="27.952547036111355" lon="-15.695349974557757">
        <ele>1487.0820000000001</ele>
        <time>2013-03-12T13:52:18Z</time>
      </trkpt>
      <trkpt lat="27.952342014759779" lon="-15.695103965699673">
        <ele>1490.27</ele>
        <time>2013-03-12T13:52:33Z</time>
      </trkpt>
      <trkpt lat="27.952183010056615" lon="-15.694892993196845">
        <ele>1493.49</ele>
        <time>2013-03-12T13:52:46Z</time>
      </trkpt>
      <trkpt lat="27.952016964554787" lon="-15.694714039564133">
        <ele>1496.546</ele>
        <time>2013-03-12T13:52:59Z</time>
      </trkpt>
      <trkpt lat="27.951803980395198" lon="-15.694567020982504">
        <ele>1499.663</ele>
        <time>2013-03-12T13:53:14Z</time>
      </trkpt>
      <trkpt lat="27.951567023992538" lon="-15.694457972422242">
        <ele>1502.8969999999999</ele>
        <time>2013-03-12T13:53:30Z</time>
      </trkpt>
      <trkpt lat="27.951258989050984" lon="-15.69434498436749">
        <ele>1505.953</ele>
        <time>2013-03-12T13:53:48Z</time>
      </trkpt>
      <trkpt lat="27.950968975201249" lon="-15.694282036274672">
        <ele>1508.9770000000001</ele>
        <time>2013-03-12T13:54:04Z</time>
      </trkpt>
      <trkpt lat="27.950616013258696" lon="-15.694111967459321">
        <ele>1512.056</ele>
        <time>2013-03-12T13:54:23Z</time>
      </trkpt>
      <trkpt lat="27.950156014412642" lon="-15.69395799189806">
        <ele>1515.0229999999999</ele>
        <time>2013-03-12T13:54:44Z</time>
      </trkpt>
      <trkpt lat="27.949631977826357" lon="-15.693792030215263">
        <ele>1517.473</ele>
        <time>2013-03-12T13:55:05Z</time>
      </trkpt>
      <trkpt lat="27.94901599176228" lon="-15.693621039390564">
        <ele>1519.778</ele>
        <time>2013-03-12T13:55:26Z</time>
      </trkpt>
      <trkpt lat="27.948338985443115" lon="-15.693557001650333">
        <ele>1520.3340000000001</ele>
        <time>2013-03-12T13:55:44Z</time>
      </trkpt>
      <trkpt lat="27.94830403290689" lon="-15.693573011085391">
        <ele>1522.0440000000001</ele>
        <time>2013-03-12T13:59:34Z</time>
      </trkpt>
      <trkpt lat="27.948319958522916" lon="-15.693578040227294">
        <ele>1521.97</ele>
        <time>2013-03-12T13:59:35Z</time>
      </trkpt>
      <trkpt lat="27.948593040928245" lon="-15.693587008863688">
        <ele>1521.7729999999999</ele>
        <time>2013-03-12T13:59:50Z</time>
      </trkpt>
      <trkpt lat="27.948592035099864" lon="-15.693584997206926">
        <ele>1522.261</ele>
        <time>2013-03-12T14:01:33Z</time>
      </trkpt>
      <trkpt lat="27.948547024279833" lon="-15.693588014692068">
        <ele>1522.316</ele>
        <time>2013-03-12T14:01:42Z</time>
      </trkpt>
      <trkpt lat="27.948360024020076" lon="-15.693608969449997">
        <ele>1523.953</ele>
        <time>2013-03-12T14:09:43Z</time>
      </trkpt>
      <trkpt lat="27.948364969342947" lon="-15.693606035783887">
        <ele>1523.954</ele>
        <time>2013-03-12T14:09:44Z</time>
      </trkpt>
      <trkpt lat="27.948416015133262" lon="-15.6937210354954">
        <ele>1523.442</ele>
        <time>2013-03-12T14:09:50Z</time>
      </trkpt>
      <trkpt lat="27.948372010141611" lon="-15.693878028541803">
        <ele>1522.922</ele>
        <time>2013-03-12T14:09:54Z</time>
      </trkpt>
      <trkpt lat="27.948033967986703" lon="-15.694024041295052">
        <ele>1521.3009999999999</ele>
        <time>2013-03-12T14:10:01Z</time>
      </trkpt>
      <trkpt lat="27.947856020182371" lon="-15.694205006584525">
        <ele>1519.6400000000001</ele>
        <time>2013-03-12T14:10:05Z</time>
      </trkpt>
      <trkpt lat="27.947776978835464" lon="-15.694330986589193">
        <ele>1518.3299999999999</ele>
        <time>2013-03-12T14:10:07Z</time>
      </trkpt>
      <trkpt lat="27.947683017700911" lon="-15.694449003785849">
        <ele>1517.693</ele>
        <time>2013-03-12T14:10:09Z</time>
      </trkpt>
      <trkpt lat="27.947573969140649" lon="-15.694656958803535">
        <ele>1516.019</ele>
        <time>2013-03-12T14:10:12Z</time>
      </trkpt>
      <trkpt lat="27.947350004687905" lon="-15.695203961804509">
        <ele>1513.1990000000001</ele>
        <time>2013-03-12T14:10:19Z</time>
      </trkpt>
      <trkpt lat="27.947303988039494" lon="-15.695495987311006">
        <ele>1512.5730000000001</ele>
        <time>2013-03-12T14:10:23Z</time>
      </trkpt>
      <trkpt lat="27.947502974420786" lon="-15.696628969162703">
        <ele>1512.444</ele>
        <time>2013-03-12T14:10:41Z</time>
      </trkpt>
      <trkpt lat="27.947522001340985" lon="-15.696713039651513">
        <ele>1512.124</ele>
        <time>2013-03-12T14:10:42Z</time>
      </trkpt>
      <trkpt lat="27.947757029905915" lon="-15.697205979377031">
        <ele>1508.9090000000001</ele>
        <time>2013-03-12T14:10:48Z</time>
      </trkpt>
      <trkpt lat="27.947864988818765" lon="-15.697432039305568">
        <ele>1507.2819999999999</ele>
        <time>2013-03-12T14:10:51Z</time>
      </trkpt>
      <trkpt lat="27.947844034060836" lon="-15.6978689879179">
        <ele>1504.1959999999999</ele>
        <time>2013-03-12T14:10:58Z</time>
      </trkpt>
      <trkpt lat="27.947656027972698" lon="-15.697748959064484">
        <ele>1501.951</ele>
        <time>2013-03-12T14:11:04Z</time>
      </trkpt>
      <trkpt lat="27.947626020759344" lon="-15.697697997093201">
        <ele>1501.3230000000001</ele>
        <time>2013-03-12T14:11:06Z</time>
      </trkpt>
      <trkpt lat="27.947634989395738" lon="-15.697845015674829">
        <ele>1499.4870000000001</ele>
        <time>2013-03-12T14:11:12Z</time>
      </trkpt>
      <trkpt lat="27.947668014094234" lon="-15.697890026494861">
        <ele>1499.0999999999999</ele>
        <time>2013-03-12T14:11:13Z</time>
      </trkpt>
      <trkpt lat="27.947781002148986" lon="-15.698355976492167">
        <ele>1495.6800000000001</ele>
        <time>2013-03-12T14:11:19Z</time>
      </trkpt>
      <trkpt lat="27.947744959965348" lon="-15.698970034718513">
        <ele>1492.6479999999999</ele>
        <time>2013-03-12T14:11:26Z</time>
      </trkpt>
      <trkpt lat="27.947707995772362" lon="-15.699523994699121">
        <ele>1489.0260000000001</ele>
        <time>2013-03-12T14:11:32Z</time>
      </trkpt>
      <trkpt lat="27.947721993550658" lon="-15.699852984398603">
        <ele>1485.48</ele>
        <time>2013-03-12T14:11:36Z</time>
      </trkpt>
      <trkpt lat="27.947744959965348" lon="-15.700083989650011">
        <ele>1482.682</ele>
        <time>2013-03-12T14:11:40Z</time>
      </trkpt>
      <trkpt lat="27.947671031579375" lon="-15.700026992708445">
        <ele>1480.627</ele>
        <time>2013-03-12T14:11:44Z</time>
      </trkpt>
      <trkpt lat="27.947567012161016" lon="-15.699721975252032">
        <ele>1478.366</ele>
        <time>2013-03-12T14:11:49Z</time>
      </trkpt>
      <trkpt lat="27.947533987462521" lon="-15.699523994699121">
        <ele>1477.461</ele>
        <time>2013-03-12T14:11:52Z</time>
      </trkpt>
      <trkpt lat="27.947413036599755" lon="-15.699168015271425">
        <ele>1474.2739999999999</ele>
        <time>2013-03-12T14:11:58Z</time>
      </trkpt>
      <trkpt lat="27.947401972487569" lon="-15.698930975049734">
        <ele>1471.7059999999999</ele>
        <time>2013-03-12T14:12:02Z</time>
      </trkpt>
      <trkpt lat="27.947426028549671" lon="-15.698802983388305">
        <ele>1470.7950000000001</ele>
        <time>2013-03-12T14:12:04Z</time>
      </trkpt>
      <trkpt lat="27.947422005236149" lon="-15.69847097620368">
        <ele>1469.3130000000001</ele>
        <time>2013-03-12T14:12:09Z</time>
      </trkpt>
      <trkpt lat="27.947327960282564" lon="-15.698208035901189">
        <ele>1468.345</ele>
        <time>2013-03-12T14:12:14Z</time>
      </trkpt>
      <trkpt lat="27.947255959734321" lon="-15.698106028139591">
        <ele>1468.202</ele>
        <time>2013-03-12T14:12:16Z</time>
      </trkpt>
      <trkpt lat="27.946967035531998" lon="-15.697615016251802">
        <ele>1464.681</ele>
        <time>2013-03-12T14:12:24Z</time>
      </trkpt>
      <trkpt lat="27.946918001398444" lon="-15.697571011260152">
        <ele>1464.133</ele>
        <time>2013-03-12T14:12:25Z</time>
      </trkpt>
      <trkpt lat="27.946810964494944" lon="-15.697400020435452">
        <ele>1462.2929999999999</ele>
        <time>2013-03-12T14:12:28Z</time>
      </trkpt>
      <trkpt lat="27.946778023615479" lon="-15.697235986590385">
        <ele>1460.866</ele>
        <time>2013-03-12T14:12:31Z</time>
      </trkpt>
      <trkpt lat="27.946785986423492" lon="-15.697187036275864">
        <ele>1460.605</ele>
        <time>2013-03-12T14:12:32Z</time>
      </trkpt>
      <trkpt lat="27.946781041100621" lon="-15.69702903740108">
        <ele>1460.1199999999999</ele>
        <time>2013-03-12T14:12:36Z</time>
      </trkpt>
      <trkpt lat="27.946638967841864" lon="-15.696980003267527">
        <ele>1459.5889999999999</ele>
        <time>2013-03-12T14:12:40Z</time>
      </trkpt>
      <trkpt lat="27.946592029184103" lon="-15.696978997439146">
        <ele>1459.4549999999999</ele>
        <time>2013-03-12T14:12:41Z</time>
      </trkpt>
      <trkpt lat="27.946325987577438" lon="-15.696886964142323">
        <ele>1456.421</ele>
        <time>2013-03-12T14:12:47Z</time>
      </trkpt>
      <trkpt lat="27.946215011179447" lon="-15.696860980242491">
        <ele>1454.354</ele>
        <time>2013-03-12T14:12:50Z</time>
      </trkpt>
      <trkpt lat="27.946233032271266" lon="-15.696962988004088">
        <ele>1451.2159999999999</ele>
        <time>2013-03-12T14:12:56Z</time>
      </trkpt>
      <trkpt lat="27.946420032531023" lon="-15.697025014087558">
        <ele>1449.5160000000001</ele>
        <time>2013-03-12T14:13:01Z</time>
      </trkpt>
      <trkpt lat="27.946593035012484" lon="-15.697122998535633">
        <ele>1447.5229999999999</ele>
        <time>2013-03-12T14:13:06Z</time>
      </trkpt>
      <trkpt lat="27.946494966745377" lon="-15.697196004912257">
        <ele>1444.297</ele>
        <time>2013-03-12T14:13:12Z</time>
      </trkpt>
      <trkpt lat="27.946462025865912" lon="-15.697176977992058">
        <ele>1443.923</ele>
        <time>2013-03-12T14:13:13Z</time>
      </trkpt>
      <trkpt lat="27.946347026154399" lon="-15.697110006585717">
        <ele>1442.9259999999999</ele>
        <time>2013-03-12T14:13:16Z</time>
      </trkpt>
      <trkpt lat="27.946039997041225" lon="-15.697058960795403">
        <ele>1439.4480000000001</ele>
        <time>2013-03-12T14:13:23Z</time>
      </trkpt>
      <trkpt lat="27.945998003706336" lon="-15.697039011865854">
        <ele>1438.921</ele>
        <time>2013-03-12T14:13:24Z</time>
      </trkpt>
      <trkpt lat="27.945956010371447" lon="-15.697019984945655">
        <ele>1438.3309999999999</ele>
        <time>2013-03-12T14:13:25Z</time>
      </trkpt>
      <trkpt lat="27.945857020094991" lon="-15.696852011606097">
        <ele>1435.28</ele>
        <time>2013-03-12T14:13:30Z</time>
      </trkpt>
      <trkpt lat="27.945869006216526" lon="-15.69681596942246">
        <ele>1435.277</ele>
        <time>2013-03-12T14:13:31Z</time>
      </trkpt>
      <trkpt lat="27.945883003994823" lon="-15.69677397608757">
        <ele>1434.6420000000001</ele>
        <time>2013-03-12T14:13:32Z</time>
      </trkpt>
      <trkpt lat="27.945859031751752" lon="-15.696556968614459">
        <ele>1432.9090000000001</ele>
        <time>2013-03-12T14:13:36Z</time>
      </trkpt>
      <trkpt lat="27.945762975141406" lon="-15.696390001103282">
        <ele>1431.347</ele>
        <time>2013-03-12T14:13:39Z</time>
      </trkpt>
      <trkpt lat="27.945611011236906" lon="-15.696197971701622">
        <ele>1427.7280000000001</ele>
        <time>2013-03-12T14:13:44Z</time>
      </trkpt>
      <trkpt lat="27.945529036223888" lon="-15.696103004738688">
        <ele>1425.9059999999999</ele>
        <time>2013-03-12T14:13:47Z</time>
      </trkpt>
      <trkpt lat="27.945314040407538" lon="-15.695879040285945">
        <ele>1422.3910000000001</ele>
        <time>2013-03-12T14:13:54Z</time>
      </trkpt>
      <trkpt lat="27.945303982123733" lon="-15.695839980617166">
        <ele>1421.9259999999999</ele>
        <time>2013-03-12T14:13:55Z</time>
      </trkpt>
      <trkpt lat="27.945380005985498" lon="-15.695645017549396">
        <ele>1420.3800000000001</ele>
        <time>2013-03-12T14:14:00Z</time>
      </trkpt>
      <trkpt lat="27.945440020412207" lon="-15.695534041151404">
        <ele>1419.7370000000001</ele>
        <time>2013-03-12T14:14:03Z</time>
      </trkpt>
      <trkpt lat="27.945285039022565" lon="-15.695657003670931">
        <ele>1417.8309999999999</ele>
        <time>2013-03-12T14:14:10Z</time>
      </trkpt>
      <trkpt lat="27.945186970755458" lon="-15.695781977847219">
        <ele>1416.425</ele>
        <time>2013-03-12T14:14:13Z</time>
      </trkpt>
      <trkpt lat="27.9451899882406" lon="-15.696058999747038">
        <ele>1413.075</ele>
        <time>2013-03-12T14:14:19Z</time>
      </trkpt>
      <trkpt lat="27.945221001282334" lon="-15.696104010567069">
        <ele>1412.5229999999999</ele>
        <time>2013-03-12T14:14:20Z</time>
      </trkpt>
      <trkpt lat="27.945435997098684" lon="-15.696387989446521">
        <ele>1410.0229999999999</ele>
        <time>2013-03-12T14:14:27Z</time>
      </trkpt>
      <trkpt lat="27.945456029847264" lon="-15.696760984137654">
        <ele>1407.107</ele>
        <time>2013-03-12T14:14:33Z</time>
      </trkpt>
      <trkpt lat="27.945429040119052" lon="-15.696828039363027">
        <ele>1406.5509999999999</ele>
        <time>2013-03-12T14:14:34Z</time>
      </trkpt>
      <trkpt lat="27.945493999868631" lon="-15.697144959121943">
        <ele>1403.4100000000001</ele>
        <time>2013-03-12T14:14:39Z</time>
      </trkpt>
      <trkpt lat="27.945581004023552" lon="-15.697231963276863">
        <ele>1402.5509999999999</ele>
        <time>2013-03-12T14:14:41Z</time>
      </trkpt>
      <trkpt lat="27.945815026760101" lon="-15.697472020983696">
        <ele>1401.403</ele>
        <time>2013-03-12T14:14:46Z</time>
      </trkpt>
      <trkpt lat="27.94600697234273" lon="-15.697596995159984">
        <ele>1400.729</ele>
        <time>2013-03-12T14:14:50Z</time>
      </trkpt>
      <trkpt lat="27.946053994819522" lon="-15.697616022080183">
        <ele>1400.797</ele>
        <time>2013-03-12T14:14:51Z</time>
      </trkpt>
      <trkpt lat="27.946211993694305" lon="-15.698099993169308">
        <ele>1399.3230000000001</ele>
        <time>2013-03-12T14:15:00Z</time>
      </trkpt>
      <trkpt lat="27.946311989799142" lon="-15.698375003412366">
        <ele>1397.876</ele>
        <time>2013-03-12T14:15:04Z</time>
      </trkpt>
      <trkpt lat="27.946148039773107" lon="-15.699121998623013">
        <ele>1394.8440000000001</ele>
        <time>2013-03-12T14:15:13Z</time>
      </trkpt>
      <trkpt lat="27.946078972890973" lon="-15.699551990255713">
        <ele>1393.732</ele>
        <time>2013-03-12T14:15:18Z</time>
      </trkpt>
      <trkpt lat="27.946171006187797" lon="-15.699923979118466">
        <ele>1391.692</ele>
        <time>2013-03-12T14:15:23Z</time>
      </trkpt>
      <trkpt lat="27.946248035877943" lon="-15.700074015185237">
        <ele>1390.4259999999999</ele>
        <time>2013-03-12T14:15:25Z</time>
      </trkpt>
      <trkpt lat="27.946322970092297" lon="-15.700427982956171">
        <ele>1386.4549999999999</ele>
        <time>2013-03-12T14:15:29Z</time>
      </trkpt>
      <trkpt lat="27.946336967870593" lon="-15.700515992939472">
        <ele>1385.325</ele>
        <time>2013-03-12T14:15:30Z</time>
      </trkpt>
      <trkpt lat="27.946290029212832" lon="-15.700773987919092">
        <ele>1381.943</ele>
        <time>2013-03-12T14:15:33Z</time>
      </trkpt>
      <trkpt lat="27.946181986480951" lon="-15.700909020379186">
        <ele>1380.29</ele>
        <time>2013-03-12T14:15:35Z</time>
      </trkpt>
      <trkpt lat="27.946062041446567" lon="-15.701032988727093">
        <ele>1379.479</ele>
        <time>2013-03-12T14:15:37Z</time>
      </trkpt>
      <trkpt lat="27.945778984576464" lon="-15.701123010367155">
        <ele>1376.296</ele>
        <time>2013-03-12T14:15:41Z</time>
      </trkpt>
      <trkpt lat="27.945549990981817" lon="-15.70115402340889">
        <ele>1372.6759999999999</ele>
        <time>2013-03-12T14:15:45Z</time>
      </trkpt>
      <trkpt lat="27.945557031780481" lon="-15.701376982033253">
        <ele>1369.107</ele>
        <time>2013-03-12T14:15:50Z</time>
      </trkpt>
      <trkpt lat="27.945596007630229" lon="-15.701416963711381">
        <ele>1368.5029999999999</ele>
        <time>2013-03-12T14:15:51Z</time>
      </trkpt>
      <trkpt lat="27.945673959329724" lon="-15.701494999229908">
        <ele>1367.75</ele>
        <time>2013-03-12T14:15:53Z</time>
      </trkpt>
      <trkpt lat="27.945888033136725" lon="-15.701804039999843">
        <ele>1368.1179999999999</ele>
        <time>2013-03-12T14:16:00Z</time>
      </trkpt>
      <trkpt lat="27.946124989539385" lon="-15.702390018850565">
        <ele>1370.797</ele>
        <time>2013-03-12T14:16:14Z</time>
      </trkpt>
      <trkpt lat="27.946266978979111" lon="-15.702715991064906">
        <ele>1373.9110000000001</ele>
        <time>2013-03-12T14:16:26Z</time>
      </trkpt>
      <trkpt lat="27.946338979527354" lon="-15.703372964635491">
        <ele>1376.5889999999999</ele>
        <time>2013-03-12T14:16:47Z</time>
      </trkpt>
      <trkpt lat="27.946317018941045" lon="-15.703501040115952">
        <ele>1377.481</ele>
        <time>2013-03-12T14:16:52Z</time>
      </trkpt>
      <trkpt lat="27.946090959012508" lon="-15.703828018158674">
        <ele>1380.6659999999999</ele>
        <time>2013-03-12T14:17:09Z</time>
      </trkpt>
      <trkpt lat="27.945887027308345" lon="-15.704016024246812">
        <ele>1383.7909999999999</ele>
        <time>2013-03-12T14:17:22Z</time>
      </trkpt>
      <trkpt lat="27.945932960137725" lon="-15.704283993691206">
        <ele>1386.8240000000001</ele>
        <time>2013-03-12T14:17:37Z</time>
      </trkpt>
      <trkpt lat="27.946061035618186" lon="-15.704512987285852">
        <ele>1389.549</ele>
        <time>2013-03-12T14:17:51Z</time>
      </trkpt>
      <trkpt lat="27.946105040609837" lon="-15.704625975340605">
        <ele>1390.845</ele>
        <time>2013-03-12T14:17:58Z</time>
      </trkpt>
      <trkpt lat="27.946103028953075" lon="-15.704972986131907">
        <ele>1393.672</ele>
        <time>2013-03-12T14:18:16Z</time>
      </trkpt>
      <trkpt lat="27.946162037551403" lon="-15.705203991383314">
        <ele>1396.796</ele>
        <time>2013-03-12T14:18:29Z</time>
      </trkpt>
      <trkpt lat="27.94621903449297" lon="-15.705532981082797">
        <ele>1399.9680000000001</ele>
        <time>2013-03-12T14:18:46Z</time>
      </trkpt>
      <trkpt lat="27.94619900174439" lon="-15.705875968560576">
        <ele>1403.027</ele>
        <time>2013-03-12T14:19:03Z</time>
      </trkpt>
      <trkpt lat="27.946171006187797" lon="-15.706365974619985">
        <ele>1406.0340000000001</ele>
        <time>2013-03-12T14:19:22Z</time>
      </trkpt>
      <trkpt lat="27.94587504118681" lon="-15.706922030076385">
        <ele>1408.039</ele>
        <time>2013-03-12T14:19:43Z</time>
      </trkpt>
      <trkpt lat="27.945688040927052" lon="-15.70719201117754">
        <ele>1411.0989999999999</ele>
        <time>2013-03-12T14:19:58Z</time>
      </trkpt>
      <trkpt lat="27.94557698071003" lon="-15.707401977851987">
        <ele>1414.4000000000001</ele>
        <time>2013-03-12T14:20:10Z</time>
      </trkpt>
      <trkpt lat="27.945430967956781" lon="-15.707606999203563">
        <ele>1417.5160000000001</ele>
        <time>2013-03-12T14:20:24Z</time>
      </trkpt>
      <trkpt lat="27.945224018767476" lon="-15.707848984748125">
        <ele>1420.5740000000001</ele>
        <time>2013-03-12T14:20:42Z</time>
      </trkpt>
      <trkpt lat="27.944960994645953" lon="-15.707885026931763">
        <ele>1423.79</ele>
        <time>2013-03-12T14:20:57Z</time>
      </trkpt>
      <trkpt lat="27.944782041013241" lon="-15.708055011928082">
        <ele>1426.895</ele>
        <time>2013-03-12T14:21:12Z</time>
      </trkpt>
      <trkpt lat="27.944690007716417" lon="-15.708219967782497">
        <ele>1430.107</ele>
        <time>2013-03-12T14:21:23Z</time>
      </trkpt>
      <trkpt lat="27.944636028259993" lon="-15.708358017727733">
        <ele>1433.1790000000001</ele>
        <time>2013-03-12T14:21:33Z</time>
      </trkpt>
      <trkpt lat="27.944550029933453" lon="-15.70846295915544">
        <ele>1436.2090000000001</ele>
        <time>2013-03-12T14:21:43Z</time>
      </trkpt>
      <trkpt lat="27.94452304020524" lon="-15.708635961636901">
        <ele>1439.2239999999999</ele>
        <time>2013-03-12T14:21:54Z</time>
      </trkpt>
      <trkpt lat="27.944594034925103" lon="-15.708881970494986">
        <ele>1441.001</ele>
        <time>2013-03-12T14:25:07Z</time>
      </trkpt>
      <trkpt lat="27.944798972457647" lon="-15.709053967148066">
        <ele>1440.5989999999999</ele>
        <time>2013-03-12T14:25:18Z</time>
      </trkpt>
      <trkpt lat="27.944778017699718" lon="-15.70927700959146">
        <ele>1439.954</ele>
        <time>2013-03-12T14:25:22Z</time>
      </trkpt>
      <trkpt lat="27.944768965244293" lon="-15.709670959040523">
        <ele>1438.2329999999999</ele>
        <time>2013-03-12T14:25:27Z</time>
      </trkpt>
      <trkpt lat="27.944762008264661" lon="-15.710306977853179">
        <ele>1434.808</ele>
        <time>2013-03-12T14:25:34Z</time>
      </trkpt>
      <trkpt lat="27.944749016314745" lon="-15.710402028635144">
        <ele>1433.95</ele>
        <time>2013-03-12T14:25:35Z</time>
      </trkpt>
      <trkpt lat="27.944605015218258" lon="-15.710722971707582">
        <ele>1430.864</ele>
        <time>2013-03-12T14:25:39Z</time>
      </trkpt>
      <trkpt lat="27.94456603936851" lon="-15.710887005552649">
        <ele>1430.3330000000001</ele>
        <time>2013-03-12T14:25:41Z</time>
      </trkpt>
      <trkpt lat="27.944549024105072" lon="-15.71103997528553">
        <ele>1429.6189999999999</ele>
        <time>2013-03-12T14:25:43Z</time>
      </trkpt>
      <trkpt lat="27.944554975256324" lon="-15.711488993838429">
        <ele>1429.309</ele>
        <time>2013-03-12T14:25:50Z</time>
      </trkpt>
      <trkpt lat="27.944494960829616" lon="-15.711674988269806">
        <ele>1428.607</ele>
        <time>2013-03-12T14:25:53Z</time>
      </trkpt>
      <trkpt lat="27.944393958896399" lon="-15.711948992684484">
        <ele>1424.559</ele>
        <time>2013-03-12T14:25:58Z</time>
      </trkpt>
      <trkpt lat="27.944390019401908" lon="-15.7120690215379">
        <ele>1422.3240000000001</ele>
        <time>2013-03-12T14:26:00Z</time>
      </trkpt>
      <trkpt lat="27.944263033568859" lon="-15.712264990434051">
        <ele>1418.7650000000001</ele>
        <time>2013-03-12T14:26:04Z</time>
      </trkpt>
      <trkpt lat="27.944284994155169" lon="-15.712387030944228">
        <ele>1417.193</ele>
        <time>2013-03-12T14:26:07Z</time>
      </trkpt>
      <trkpt lat="27.944378033280373" lon="-15.712423995137215">
        <ele>1415.835</ele>
        <time>2013-03-12T14:26:09Z</time>
      </trkpt>
      <trkpt lat="27.944495966657996" lon="-15.712462970986962">
        <ele>1414.5070000000001</ele>
        <time>2013-03-12T14:26:11Z</time>
      </trkpt>
      <trkpt lat="27.944793021306396" lon="-15.712806964293122">
        <ele>1411.501</ele>
        <time>2013-03-12T14:26:18Z</time>
      </trkpt>
      <trkpt lat="27.944793021306396" lon="-15.712938979268074">
        <ele>1410.7560000000001</ele>
        <time>2013-03-12T14:26:20Z</time>
      </trkpt>
      <trkpt lat="27.944785980507731" lon="-15.713062025606632">
        <ele>1410.0550000000001</ele>
        <time>2013-03-12T14:26:22Z</time>
      </trkpt>
      <trkpt lat="27.944692019373178" lon="-15.713087003678083">
        <ele>1407.0260000000001</ele>
        <time>2013-03-12T14:26:28Z</time>
      </trkpt>
      <trkpt lat="27.94443997554481" lon="-15.712690958753228">
        <ele>1403.598</ele>
        <time>2013-03-12T14:26:38Z</time>
      </trkpt>
      <trkpt lat="27.944270996376872" lon="-15.712764970958233">
        <ele>1401.557</ele>
        <time>2013-03-12T14:26:41Z</time>
      </trkpt>
      <trkpt lat="27.94422104023397" lon="-15.712794978171587">
        <ele>1400.771</ele>
        <time>2013-03-12T14:26:42Z</time>
      </trkpt>
      <trkpt lat="27.944108974188566" lon="-15.712859015911818">
        <ele>1398.086</ele>
        <time>2013-03-12T14:26:45Z</time>
      </trkpt>
      <trkpt lat="27.944196984171867" lon="-15.712917018681765">
        <ele>1394.742</ele>
        <time>2013-03-12T14:26:50Z</time>
      </trkpt>
      <trkpt lat="27.944471994414926" lon="-15.713047021999955">
        <ele>1392.6120000000001</ele>
        <time>2013-03-12T14:26:58Z</time>
      </trkpt>
      <trkpt lat="27.944480963051319" lon="-15.713096978142858">
        <ele>1392.164</ele>
        <time>2013-03-12T14:26:59Z</time>
      </trkpt>
      <trkpt lat="27.944421032443643" lon="-15.713169984519482">
        <ele>1389.1310000000001</ele>
        <time>2013-03-12T14:27:04Z</time>
      </trkpt>
      <trkpt lat="27.94422104023397" lon="-15.71308197453618">
        <ele>1386.991</ele>
        <time>2013-03-12T14:27:09Z</time>
      </trkpt>
      <trkpt lat="27.944165971130133" lon="-15.71310100145638">
        <ele>1386.6189999999999</ele>
        <time>2013-03-12T14:27:10Z</time>
      </trkpt>
      <trkpt lat="27.943934965878725" lon="-15.713090021163225">
        <ele>1384.421</ele>
        <time>2013-03-12T14:27:14Z</time>
      </trkpt>
      <trkpt lat="27.943889033049345" lon="-15.713075017556548">
        <ele>1383.7809999999999</ele>
        <time>2013-03-12T14:27:15Z</time>
      </trkpt>
      <trkpt lat="27.943934965878725" lon="-15.713205020874739">
        <ele>1380.5909999999999</ele>
        <time>2013-03-12T14:27:20Z</time>
      </trkpt>
      <trkpt lat="27.943990034982562" lon="-15.713223963975906">
        <ele>1379.885</ele>
        <time>2013-03-12T14:27:21Z</time>
      </trkpt>
      <trkpt lat="27.944221962243319" lon="-15.713341981172562">
        <ele>1378.556</ele>
        <time>2013-03-12T14:27:25Z</time>
      </trkpt>
      <trkpt lat="27.944332016631961" lon="-15.71342496201396">
        <ele>1377.577</ele>
        <time>2013-03-12T14:27:27Z</time>
      </trkpt>
      <trkpt lat="27.944450033828616" lon="-15.713753029704094">
        <ele>1375.1500000000001</ele>
        <time>2013-03-12T14:27:31Z</time>
      </trkpt>
      <trkpt lat="27.944595040753484" lon="-15.714099034667015">
        <ele>1371.1199999999999</ele>
        <time>2013-03-12T14:27:35Z</time>
      </trkpt>
      <trkpt lat="27.944623958319426" lon="-15.714166006073356">
        <ele>1370.183</ele>
        <time>2013-03-12T14:27:36Z</time>
      </trkpt>
      <trkpt lat="27.944837026298046" lon="-15.714355017989874">
        <ele>1366.854</ele>
        <time>2013-03-12T14:27:40Z</time>
      </trkpt>
      <trkpt lat="27.944903997704387" lon="-15.714393993839622">
        <ele>1366.3530000000001</ele>
        <time>2013-03-12T14:27:41Z</time>
      </trkpt>
      <trkpt lat="27.945109019055963" lon="-15.714547969400883">
        <ele>1364.7560000000001</ele>
        <time>2013-03-12T14:27:44Z</time>
      </trkpt>
      <trkpt lat="27.945284033194184" lon="-15.714865978807211">
        <ele>1362.9079999999999</ele>
        <time>2013-03-12T14:27:48Z</time>
      </trkpt>
      <trkpt lat="27.94540598988533" lon="-15.71514300070703">
        <ele>1360.777</ele>
        <time>2013-03-12T14:27:51Z</time>
      </trkpt>
      <trkpt lat="27.945504980161786" lon="-15.715316003188491">
        <ele>1359.193</ele>
        <time>2013-03-12T14:27:53Z</time>
      </trkpt>
      <trkpt lat="27.945732967928052" lon="-15.71563602425158">
        <ele>1356.7049999999999</ele>
        <time>2013-03-12T14:27:57Z</time>
      </trkpt>
      <trkpt lat="27.94600797817111" lon="-15.716187972575426">
        <ele>1353.6890000000001</ele>
        <time>2013-03-12T14:28:03Z</time>
      </trkpt>
      <trkpt lat="27.946278965100646" lon="-15.716803958639503">
        <ele>1350.6379999999999</ele>
        <time>2013-03-12T14:28:10Z</time>
      </trkpt>
      <trkpt lat="27.946335962042212" lon="-15.716950977221131">
        <ele>1350.069</ele>
        <time>2013-03-12T14:28:12Z</time>
      </trkpt>
      <trkpt lat="27.946469988673925" lon="-15.717146024107933">
        <ele>1349.848</ele>
        <time>2013-03-12T14:28:16Z</time>
      </trkpt>
      <trkpt lat="27.946526985615492" lon="-15.717295976355672">
        <ele>1350.6800000000001</ele>
        <time>2013-03-12T14:28:20Z</time>
      </trkpt>
      <trkpt lat="27.946731001138687" lon="-15.717669976875186">
        <ele>1353.8579999999999</ele>
        <time>2013-03-12T14:28:34Z</time>
      </trkpt>
      <trkpt lat="27.946971980854869" lon="-15.717910034582019">
        <ele>1356.9059999999999</ele>
        <time>2013-03-12T14:28:47Z</time>
      </trkpt>
      <trkpt lat="27.947201980277896" lon="-15.718092005699873">
        <ele>1360.0250000000001</ele>
        <time>2013-03-12T14:28:59Z</time>
      </trkpt>
      <trkpt lat="27.947540022432804" lon="-15.718391994014382">
        <ele>1362.7439999999999</ele>
        <time>2013-03-12T14:29:16Z</time>
      </trkpt>
      <trkpt lat="27.947577992454171" lon="-15.718523003160954">
        <ele>1363.1849999999999</ele>
        <time>2013-03-12T14:29:19Z</time>
      </trkpt>
      <trkpt lat="27.947772033512592" lon="-15.719019966199994">
        <ele>1362.7670000000001</ele>
        <time>2013-03-12T14:29:28Z</time>
      </trkpt>
      <trkpt lat="27.947804974392056" lon="-15.719307968392968">
        <ele>1362.1669999999999</ele>
        <time>2013-03-12T14:29:32Z</time>
      </trkpt>
      <trkpt lat="27.947733979672194" lon="-15.719782970845699">
        <ele>1360.9480000000001</ele>
        <time>2013-03-12T14:29:38Z</time>
      </trkpt>
      <trkpt lat="27.947858031839132" lon="-15.720093017444015">
        <ele>1359.8889999999999</ele>
        <time>2013-03-12T14:29:43Z</time>
      </trkpt>
      <trkpt lat="27.948083002120256" lon="-15.720279011875391">
        <ele>1359.2850000000001</ele>
        <time>2013-03-12T14:29:47Z</time>
      </trkpt>
      <trkpt lat="27.948313001543283" lon="-15.720753008499742">
        <ele>1357.338</ele>
        <time>2013-03-12T14:29:53Z</time>
      </trkpt>
      <trkpt lat="27.948409980162978" lon="-15.720935985445976">
        <ele>1356.742</ele>
        <time>2013-03-12T14:29:55Z</time>
      </trkpt>
      <trkpt lat="27.94847602955997" lon="-15.721340999007225">
        <ele>1355.027</ele>
        <time>2013-03-12T14:29:59Z</time>
      </trkpt>
      <trkpt lat="27.948469994589686" lon="-15.721520958468318">
        <ele>1354.5809999999999</ele>
        <time>2013-03-12T14:30:01Z</time>
      </trkpt>
      <trkpt lat="27.948532020673156" lon="-15.721841985359788">
        <ele>1354.9100000000001</ele>
        <time>2013-03-12T14:30:05Z</time>
      </trkpt>
      <trkpt lat="27.948582982644439" lon="-15.722109032794833">
        <ele>1354.3779999999999</ele>
        <time>2013-03-12T14:30:08Z</time>
      </trkpt>
      <trkpt lat="27.948602009564638" lon="-15.722608007490635">
        <ele>1351.6980000000001</ele>
        <time>2013-03-12T14:30:13Z</time>
      </trkpt>
      <trkpt lat="27.948385002091527" lon="-15.723120979964733">
        <ele>1348.296</ele>
        <time>2013-03-12T14:30:19Z</time>
      </trkpt>
      <trkpt lat="27.948329010978341" lon="-15.723205972462893">
        <ele>1347.7639999999999</ele>
        <time>2013-03-12T14:30:20Z</time>
      </trkpt>
      <trkpt lat="27.948019970208406" lon="-15.723727997392416">
        <ele>1344.279</ele>
        <time>2013-03-12T14:30:26Z</time>
      </trkpt>
      <trkpt lat="27.947970014065504" lon="-15.723804021254182">
        <ele>1343.6310000000001</ele>
        <time>2013-03-12T14:30:27Z</time>
      </trkpt>
      <trkpt lat="27.947705984115601" lon="-15.724055981263518">
        <ele>1340.5909999999999</ele>
        <time>2013-03-12T14:30:31Z</time>
      </trkpt>
      <trkpt lat="27.947370037436485" lon="-15.724272988736629">
        <ele>1337.482</ele>
        <time>2013-03-12T14:30:35Z</time>
      </trkpt>
      <trkpt lat="27.947281021624804" lon="-15.724317999556661">
        <ele>1336.539</ele>
        <time>2013-03-12T14:30:36Z</time>
      </trkpt>
      <trkpt lat="27.94710299000144" lon="-15.724388994276524">
        <ele>1334.646</ele>
        <time>2013-03-12T14:30:38Z</time>
      </trkpt>
      <trkpt lat="27.946861004456878" lon="-15.72453198954463">
        <ele>1331.6179999999999</ele>
        <time>2013-03-12T14:30:41Z</time>
      </trkpt>
      <trkpt lat="27.946603009477258" lon="-15.724567025899887">
        <ele>1330.105</ele>
        <time>2013-03-12T14:30:44Z</time>
      </trkpt>
      <trkpt lat="27.946335040032864" lon="-15.7245749887079">
        <ele>1328.075</ele>
        <time>2013-03-12T14:30:47Z</time>
      </trkpt>
      <trkpt lat="27.945885015651584" lon="-15.724601978436112">
        <ele>1324.354</ele>
        <time>2013-03-12T14:30:52Z</time>
      </trkpt>
      <trkpt lat="27.945801028981805" lon="-15.72461798787117">
        <ele>1323.375</ele>
        <time>2013-03-12T14:30:53Z</time>
      </trkpt>
      <trkpt lat="27.945525012910366" lon="-15.724758971482515">
        <ele>1319.606</ele>
        <time>2013-03-12T14:30:57Z</time>
      </trkpt>
      <trkpt lat="27.945386962965131" lon="-15.724838012829423">
        <ele>1317.644</ele>
        <time>2013-03-12T14:30:59Z</time>
      </trkpt>
      <trkpt lat="27.945130979642272" lon="-15.724996011704206">
        <ele>1313.9680000000001</ele>
        <time>2013-03-12T14:31:03Z</time>
      </trkpt>
      <trkpt lat="27.944960994645953" lon="-15.725135989487171">
        <ele>1310.9580000000001</ele>
        <time>2013-03-12T14:31:06Z</time>
      </trkpt>
      <trkpt lat="27.944917995482683" lon="-15.725208995863795">
        <ele>1310.115</ele>
        <time>2013-03-12T14:31:07Z</time>
      </trkpt>
      <trkpt lat="27.944840965792537" lon="-15.725350985303521">
        <ele>1308.4739999999999</ele>
        <time>2013-03-12T14:31:09Z</time>
      </trkpt>
      <trkpt lat="27.944683972746134" lon="-15.725512001663446">
        <ele>1306.952</ele>
        <time>2013-03-12T14:31:12Z</time>
      </trkpt>
      <trkpt lat="27.94452597387135" lon="-15.725765973329544">
        <ele>1304.076</ele>
        <time>2013-03-12T14:31:16Z</time>
      </trkpt>
      <trkpt lat="27.944299997761846" lon="-15.726002007722855">
        <ele>1300.99</ele>
        <time>2013-03-12T14:31:20Z</time>
      </trkpt>
      <trkpt lat="27.944226991385221" lon="-15.726047018542886">
        <ele>1300.1189999999999</ele>
        <time>2013-03-12T14:31:21Z</time>
      </trkpt>
      <trkpt lat="27.944039991125464" lon="-15.726198982447386">
        <ele>1297.499</ele>
        <time>2013-03-12T14:31:24Z</time>
      </trkpt>
      <trkpt lat="27.943917028605938" lon="-15.726410960778594">
        <ele>1295.414</ele>
        <time>2013-03-12T14:31:27Z</time>
      </trkpt>
      <trkpt lat="27.943620979785919" lon="-15.726627968251705">
        <ele>1293.4670000000001</ele>
        <time>2013-03-12T14:31:32Z</time>
      </trkpt>
      <trkpt lat="27.943555014207959" lon="-15.726651018485427">
        <ele>1293.1220000000001</ele>
        <time>2013-03-12T14:31:33Z</time>
      </trkpt>
      <trkpt lat="27.943261982873082" lon="-15.726954024285078">
        <ele>1290.1020000000001</ele>
        <time>2013-03-12T14:31:41Z</time>
      </trkpt>
      <trkpt lat="27.942968029528856" lon="-15.727085033431649">
        <ele>1287.2670000000001</ele>
        <time>2013-03-12T14:31:48Z</time>
      </trkpt>
      <trkpt lat="27.942712968215346" lon="-15.727312015369534">
        <ele>1283.742</ele>
        <time>2013-03-12T14:31:55Z</time>
      </trkpt>
      <trkpt lat="27.942639961838722" lon="-15.727373035624623">
        <ele>1282.798</ele>
        <time>2013-03-12T14:31:57Z</time>
      </trkpt>
      <trkpt lat="27.94254801236093" lon="-15.727487029507756">
        <ele>1281.5940000000001</ele>
        <time>2013-03-12T14:32:00Z</time>
      </trkpt>
      <trkpt lat="27.942506019026041" lon="-15.727770002558827">
        <ele>1279.002</ele>
        <time>2013-03-12T14:32:05Z</time>
      </trkpt>
      <trkpt lat="27.942543989047408" lon="-15.727988015860319">
        <ele>1278.192</ele>
        <time>2013-03-12T14:32:09Z</time>
      </trkpt>
      <trkpt lat="27.942604003474116" lon="-15.728586986660957">
        <ele>1280.3030000000001</ele>
        <time>2013-03-12T14:32:24Z</time>
      </trkpt>
      <trkpt lat="27.942466959357262" lon="-15.728875994682312">
        <ele>1281.021</ele>
        <time>2013-03-12T14:32:32Z</time>
      </trkpt>
      <trkpt lat="27.942436030134559" lon="-15.728968027979136">
        <ele>1280.998</ele>
        <time>2013-03-12T14:32:34Z</time>
      </trkpt>
      <trkpt lat="27.942415997385979" lon="-15.72921303100884">
        <ele>1280.73</ele>
        <time>2013-03-12T14:32:39Z</time>
      </trkpt>
      <trkpt lat="27.942410968244076" lon="-15.729359965771437">
        <ele>1280.837</ele>
        <time>2013-03-12T14:32:42Z</time>
      </trkpt>
      <trkpt lat="27.942400993779302" lon="-15.729615027084947">
        <ele>1281.25</ele>
        <time>2013-03-12T14:32:47Z</time>
      </trkpt>
      <trkpt lat="27.942249029874802" lon="-15.729866987094283">
        <ele>1280.6980000000001</ele>
        <time>2013-03-12T14:32:53Z</time>
      </trkpt>
      <trkpt lat="27.942159008234739" lon="-15.729911997914314">
        <ele>1280.357</ele>
        <time>2013-03-12T14:32:55Z</time>
      </trkpt>
      <trkpt lat="27.94201098382473" lon="-15.730299996212125">
        <ele>1278.0730000000001</ele>
        <time>2013-03-12T14:33:03Z</time>
      </trkpt>
      <trkpt lat="27.942045014351606" lon="-15.730462018400431">
        <ele>1277.4380000000001</ele>
        <time>2013-03-12T14:33:06Z</time>
      </trkpt>
      <trkpt lat="27.941992962732911" lon="-15.730879018083215">
        <ele>1275.5519999999999</ele>
        <time>2013-03-12T14:33:12Z</time>
      </trkpt>
      <trkpt lat="27.941897995769978" lon="-15.731144975870848">
        <ele>1273.9659999999999</ele>
        <time>2013-03-12T14:33:15Z</time>
      </trkpt>
      <trkpt lat="27.941495999693871" lon="-15.731725003570318">
        <ele>1270.248</ele>
        <time>2013-03-12T14:33:22Z</time>
      </trkpt>
      <trkpt lat="27.941373959183693" lon="-15.731883002445102">
        <ele>1268.6669999999999</ele>
        <time>2013-03-12T14:33:24Z</time>
      </trkpt>
      <trkpt lat="27.941099032759666" lon="-15.732135968282819">
        <ele>1265.4469999999999</ele>
        <time>2013-03-12T14:33:28Z</time>
      </trkpt>
      <trkpt lat="27.940843971446157" lon="-15.732534024864435">
        <ele>1262.221</ele>
        <time>2013-03-12T14:33:33Z</time>
      </trkpt>
      <trkpt lat="27.940421020612121" lon="-15.733122015371919">
        <ele>1259.221</ele>
        <time>2013-03-12T14:33:41Z</time>
      </trkpt>
      <trkpt lat="27.939555002376437" lon="-15.73409398086369">
        <ele>1257.3889999999999</ele>
        <time>2013-03-12T14:33:57Z</time>
      </trkpt>
      <trkpt lat="27.939461041241884" lon="-15.734052993357182">
        <ele>1255.444</ele>
        <time>2013-03-12T14:34:05Z</time>
      </trkpt>
      <trkpt lat="27.939521977677941" lon="-15.733916033059359">
        <ele>1254.9079999999999</ele>
        <time>2013-03-12T14:38:57Z</time>
      </trkpt>
      <trkpt lat="27.93968902900815" lon="-15.733704976737499">
        <ele>1253.5509999999999</ele>
        <time>2013-03-12T14:39:05Z</time>
      </trkpt>
      <trkpt lat="27.939961021766067" lon="-15.732947001233697">
        <ele>1250.077</ele>
        <time>2013-03-12T14:39:15Z</time>
      </trkpt>
      <trkpt lat="27.940163025632501" lon="-15.732604013755918">
        <ele>1247.0340000000001</ele>
        <time>2013-03-12T14:39:19Z</time>
      </trkpt>
      <trkpt lat="27.940207030624151" lon="-15.732522960752249">
        <ele>1246.22</ele>
        <time>2013-03-12T14:39:20Z</time>
      </trkpt>
      <trkpt lat="27.940268972888589" lon="-15.732196988537908">
        <ele>1242.2190000000001</ele>
        <time>2013-03-12T14:39:24Z</time>
      </trkpt>
      <trkpt lat="27.940137963742018" lon="-15.732031026855111">
        <ele>1239.212</ele>
        <time>2013-03-12T14:39:27Z</time>
      </trkpt>
      <trkpt lat="27.939829006791115" lon="-15.731944022700191">
        <ele>1235.3309999999999</ele>
        <time>2013-03-12T14:39:31Z</time>
      </trkpt>
      <trkpt lat="27.939681988209486" lon="-15.731703964993358">
        <ele>1233.623</ele>
        <time>2013-03-12T14:39:34Z</time>
      </trkpt>
      <trkpt lat="27.939607976004481" lon="-15.731366006657481">
        <ele>1230.0050000000001</ele>
        <time>2013-03-12T14:39:38Z</time>
      </trkpt>
      <trkpt lat="27.93947696685791" lon="-15.731349997222424">
        <ele>1228.425</ele>
        <time>2013-03-12T14:39:40Z</time>
      </trkpt>
      <trkpt lat="27.939407983794808" lon="-15.731357960030437">
        <ele>1227.626</ele>
        <time>2013-03-12T14:39:41Z</time>
      </trkpt>
      <trkpt lat="27.939128028228879" lon="-15.731170037761331">
        <ele>1224.549</ele>
        <time>2013-03-12T14:39:46Z</time>
      </trkpt>
      <trkpt lat="27.939202040433884" lon="-15.730958981439471">
        <ele>1222.4359999999999</ele>
        <time>2013-03-12T14:39:49Z</time>
      </trkpt>
      <trkpt lat="27.939234981313348" lon="-15.730900978669524">
        <ele>1221.7329999999999</ele>
        <time>2013-03-12T14:39:50Z</time>
      </trkpt>
      <trkpt lat="27.939160969108343" lon="-15.730638038367033">
        <ele>1218.116</ele>
        <time>2013-03-12T14:39:55Z</time>
      </trkpt>
      <trkpt lat="27.939327014610171" lon="-15.73052697815001">
        <ele>1215.623</ele>
        <time>2013-03-12T14:39:59Z</time>
      </trkpt>
      <trkpt lat="27.939394991844893" lon="-15.730529995635152">
        <ele>1215.617</ele>
        <time>2013-03-12T14:40:00Z</time>
      </trkpt>
      <trkpt lat="27.939746025949717" lon="-15.730399992316961">
        <ele>1213.713</ele>
        <time>2013-03-12T14:40:05Z</time>
      </trkpt>
      <trkpt lat="27.93981702066958" lon="-15.73035498149693">
        <ele>1213.277</ele>
        <time>2013-03-12T14:40:06Z</time>
      </trkpt>
      <trkpt lat="27.940157996490598" lon="-15.730283986777067">
        <ele>1210.55</ele>
        <time>2013-03-12T14:40:10Z</time>
      </trkpt>
      <trkpt lat="27.940400987863541" lon="-15.730133028700948">
        <ele>1207.3689999999999</ele>
        <time>2013-03-12T14:40:14Z</time>
      </trkpt>
      <trkpt lat="27.940466031432152" lon="-15.729974023997784">
        <ele>1205.9680000000001</ele>
        <time>2013-03-12T14:40:16Z</time>
      </trkpt>
      <trkpt lat="27.940522022545338" lon="-15.729803033173084">
        <ele>1204.806</ele>
        <time>2013-03-12T14:40:18Z</time>
      </trkpt>
      <trkpt lat="27.940714973956347" lon="-15.729596000164747">
        <ele>1201.3030000000001</ele>
        <time>2013-03-12T14:40:23Z</time>
      </trkpt>
      <trkpt lat="27.94074397534132" lon="-15.729545038193464">
        <ele>1200.683</ele>
        <time>2013-03-12T14:40:25Z</time>
      </trkpt>
      <trkpt lat="27.940651020035148" lon="-15.729486029595137">
        <ele>1197.037</ele>
        <time>2013-03-12T14:40:35Z</time>
      </trkpt>
      <trkpt lat="27.94063501060009" lon="-15.729488963261247">
        <ele>1196.893</ele>
        <time>2013-03-12T14:40:36Z</time>
      </trkpt>
      <trkpt lat="27.940565021708608" lon="-15.729526011273265">
        <ele>1196.2629999999999</ele>
        <time>2013-03-12T14:40:39Z</time>
      </trkpt>
      <trkpt lat="27.940367041155696" lon="-15.729616032913327">
        <ele>1194.653</ele>
        <time>2013-03-12T14:40:43Z</time>
      </trkpt>
      <trkpt lat="27.940198983997107" lon="-15.729820970445871">
        <ele>1192.684</ele>
        <time>2013-03-12T14:40:47Z</time>
      </trkpt>
      <trkpt lat="27.940055988729" lon="-15.729861035943031">
        <ele>1191.441</ele>
        <time>2013-03-12T14:40:50Z</time>
      </trkpt>
      <trkpt lat="27.939988011494279" lon="-15.729578984901309">
        <ele>1188.039</ele>
        <time>2013-03-12T14:40:56Z</time>
      </trkpt>
      <trkpt lat="27.940046014264226" lon="-15.729543026536703">
        <ele>1187.575</ele>
        <time>2013-03-12T14:40:57Z</time>
      </trkpt>
      <trkpt lat="27.940108040347695" lon="-15.729502039030194">
        <ele>1187.098</ele>
        <time>2013-03-12T14:40:58Z</time>
      </trkpt>
      <trkpt lat="27.940367963165045" lon="-15.729145975783467">
        <ele>1184.0029999999999</ele>
        <time>2013-03-12T14:41:03Z</time>
      </trkpt>
      <trkpt lat="27.940585976466537" lon="-15.728812040761113">
        <ele>1180.6179999999999</ele>
        <time>2013-03-12T14:41:07Z</time>
      </trkpt>
      <trkpt lat="27.940858975052834" lon="-15.72859100997448">
        <ele>1177.259</ele>
        <time>2013-03-12T14:41:11Z</time>
      </trkpt>
      <trkpt lat="27.940919995307922" lon="-15.728554967790842">
        <ele>1176.3910000000001</ele>
        <time>2013-03-12T14:41:12Z</time>
      </trkpt>
      <trkpt lat="27.941017979755998" lon="-15.728367967531085">
        <ele>1174.9580000000001</ele>
        <time>2013-03-12T14:41:15Z</time>
      </trkpt>
      <trkpt lat="27.940974980592728" lon="-15.728112990036607">
        <ele>1173.2190000000001</ele>
        <time>2013-03-12T14:41:18Z</time>
      </trkpt>
      <trkpt lat="27.940812958404422" lon="-15.727674029767513">
        <ele>1171.116</ele>
        <time>2013-03-12T14:41:23Z</time>
      </trkpt>
      <trkpt lat="27.940881019458175" lon="-15.727311009541154">
        <ele>1168.4259999999999</ele>
        <time>2013-03-12T14:41:27Z</time>
      </trkpt>
      <trkpt lat="27.940997024998069" lon="-15.727028036490083">
        <ele>1166.116</ele>
        <time>2013-03-12T14:41:30Z</time>
      </trkpt>
      <trkpt lat="27.94078404083848" lon="-15.726546999067068">
        <ele>1162.771</ele>
        <time>2013-03-12T14:41:38Z</time>
      </trkpt>
      <trkpt lat="27.940451027825475" lon="-15.72622898966074">
        <ele>1159.1880000000001</ele>
        <time>2013-03-12T14:41:44Z</time>
      </trkpt>
      <trkpt lat="27.940381038933992" lon="-15.725974012166262">
        <ele>1156.079</ele>
        <time>2013-03-12T14:41:48Z</time>
      </trkpt>
      <trkpt lat="27.940121032297611" lon="-15.725926989689469">
        <ele>1154.037</ele>
        <time>2013-03-12T14:41:51Z</time>
      </trkpt>
      <trkpt lat="27.939760023728013" lon="-15.725868986919522">
        <ele>1151.2909999999999</ele>
        <time>2013-03-12T14:41:55Z</time>
      </trkpt>
      <trkpt lat="27.939507979899645" lon="-15.725622978061438">
        <ele>1148.1559999999999</ele>
        <time>2013-03-12T14:41:59Z</time>
      </trkpt>
      <trkpt lat="27.939462969079614" lon="-15.725335981696844">
        <ele>1145.8420000000001</ele>
        <time>2013-03-12T14:42:02Z</time>
      </trkpt>
      <trkpt lat="27.939470009878278" lon="-15.724973967298865">
        <ele>1143.191</ele>
        <time>2013-03-12T14:42:06Z</time>
      </trkpt>
      <trkpt lat="27.9393479693681" lon="-15.724882017821074">
        <ele>1139.2819999999999</ele>
        <time>2013-03-12T14:42:10Z</time>
      </trkpt>
      <trkpt lat="27.939233975484967" lon="-15.725071029737592">
        <ele>1136.309</ele>
        <time>2013-03-12T14:42:13Z</time>
      </trkpt>
      <trkpt lat="27.939042029902339" lon="-15.725453998893499">
        <ele>1132.55</ele>
        <time>2013-03-12T14:42:17Z</time>
      </trkpt>
      <trkpt lat="27.938931975513697" lon="-15.725785000249743">
        <ele>1129.3150000000001</ele>
        <time>2013-03-12T14:42:20Z</time>
      </trkpt>
      <trkpt lat="27.938961982727051" lon="-15.726215997710824">
        <ele>1125.4280000000001</ele>
        <time>2013-03-12T14:42:24Z</time>
      </trkpt>
      <trkpt lat="27.939161974936724" lon="-15.726453959941864">
        <ele>1122.1500000000001</ele>
        <time>2013-03-12T14:42:27Z</time>
      </trkpt>
      <trkpt lat="27.939358027651906" lon="-15.726667027920485">
        <ele>1118.963</ele>
        <time>2013-03-12T14:42:30Z</time>
      </trkpt>
      <trkpt lat="27.939399015158415" lon="-15.726733999326825">
        <ele>1118.9570000000001</ele>
        <time>2013-03-12T14:42:31Z</time>
      </trkpt>
      <trkpt lat="27.939340006560087" lon="-15.727071035653353">
        <ele>1115.52</ele>
        <time>2013-03-12T14:42:36Z</time>
      </trkpt>
      <trkpt lat="27.939276974648237" lon="-15.72713297791779">
        <ele>1115.1369999999999</ele>
        <time>2013-03-12T14:42:37Z</time>
      </trkpt>
      <trkpt lat="27.93895703740418" lon="-15.727392984554172">
        <ele>1113.508</ele>
        <time>2013-03-12T14:42:41Z</time>
      </trkpt>
      <trkpt lat="27.938409028574824" lon="-15.727724991738796">
        <ele>1109.8710000000001</ele>
        <time>2013-03-12T14:42:47Z</time>
      </trkpt>
      <trkpt lat="27.938238037750125" lon="-15.727858012542129">
        <ele>1108.01</ele>
        <time>2013-03-12T14:42:49Z</time>
      </trkpt>
      <trkpt lat="27.93797199614346" lon="-15.727986004203558">
        <ele>1104.8430000000001</ele>
        <time>2013-03-12T14:42:52Z</time>
      </trkpt>
      <trkpt lat="27.937813997268677" lon="-15.728145008906722">
        <ele>1101.826</ele>
        <time>2013-03-12T14:42:55Z</time>
      </trkpt>
      <trkpt lat="27.937770998105407" lon="-15.728174010291696">
        <ele>1101.818</ele>
        <time>2013-03-12T14:42:56Z</time>
      </trkpt>
      <trkpt lat="27.93760503642261" lon="-15.728036966174841">
        <ele>1099.0630000000001</ele>
        <time>2013-03-12T14:43:00Z</time>
      </trkpt>
      <trkpt lat="27.937571005895734" lon="-15.727978041395545">
        <ele>1098.5899999999999</ele>
        <time>2013-03-12T14:43:01Z</time>
      </trkpt>
      <trkpt lat="27.93713397346437" lon="-15.727872010320425">
        <ele>1095.432</ele>
        <time>2013-03-12T14:43:08Z</time>
      </trkpt>
      <trkpt lat="27.937060967087746" lon="-15.727916015312076">
        <ele>1095.0229999999999</ele>
        <time>2013-03-12T14:43:09Z</time>
      </trkpt>
      <trkpt lat="27.936642039567232" lon="-15.728166969493032">
        <ele>1091.5640000000001</ele>
        <time>2013-03-12T14:43:15Z</time>
      </trkpt>
      <trkpt lat="27.936422014608979" lon="-15.72831298224628">
        <ele>1088.434</ele>
        <time>2013-03-12T14:43:19Z</time>
      </trkpt>
      <trkpt lat="27.936345990747213" lon="-15.728403003886342">
        <ele>1087.635</ele>
        <time>2013-03-12T14:43:21Z</time>
      </trkpt>
      <trkpt lat="27.936130994930863" lon="-15.728553961962461">
        <ele>1084.191</ele>
        <time>2013-03-12T14:43:26Z</time>
      </trkpt>
      <trkpt lat="27.936076009646058" lon="-15.728563014417887">
        <ele>1083.683</ele>
        <time>2013-03-12T14:43:27Z</time>
      </trkpt>
      <trkpt lat="27.935830000787973" lon="-15.728964004665613">
        <ele>1080.675</ele>
        <time>2013-03-12T14:43:35Z</time>
      </trkpt>
      <trkpt lat="27.935783984139562" lon="-15.729007003828883">
        <ele>1080.172</ele>
        <time>2013-03-12T14:43:36Z</time>
      </trkpt>
      <trkpt lat="27.93573796749115" lon="-15.729051008820534">
        <ele>1079.7629999999999</ele>
        <time>2013-03-12T14:43:37Z</time>
      </trkpt>
      <trkpt lat="27.935466980561614" lon="-15.729454010725021">
        <ele>1076.4549999999999</ele>
        <time>2013-03-12T14:43:43Z</time>
      </trkpt>
      <trkpt lat="27.935370001941919" lon="-15.729603040963411">
        <ele>1074.943</ele>
        <time>2013-03-12T14:43:45Z</time>
      </trkpt>
      <trkpt lat="27.935293978080153" lon="-15.72977202013135">
        <ele>1074.2650000000001</ele>
        <time>2013-03-12T14:43:47Z</time>
      </trkpt>
      <trkpt lat="27.935214014723897" lon="-15.730033032596111">
        <ele>1071.681</ele>
        <time>2013-03-12T14:43:50Z</time>
      </trkpt>
      <trkpt lat="27.935301018878818" lon="-15.730304019525647">
        <ele>1067.9580000000001</ele>
        <time>2013-03-12T14:43:54Z</time>
      </trkpt>
      <trkpt lat="27.935356004163623" lon="-15.730423964560032">
        <ele>1067.0319999999999</ele>
        <time>2013-03-12T14:43:56Z</time>
      </trkpt>
      <trkpt lat="27.935293978080153" lon="-15.730618005618453">
        <ele>1063.549</ele>
        <time>2013-03-12T14:43:59Z</time>
      </trkpt>
      <trkpt lat="27.935061967000365" lon="-15.730816991999745">
        <ele>1060.421</ele>
        <time>2013-03-12T14:44:03Z</time>
      </trkpt>
      <trkpt lat="27.935089040547609" lon="-15.731064006686211">
        <ele>1057.819</ele>
        <time>2013-03-12T14:44:06Z</time>
      </trkpt>
      <trkpt lat="27.935112006962299" lon="-15.73114899918437">
        <ele>1056.9110000000001</ele>
        <time>2013-03-12T14:44:07Z</time>
      </trkpt>
      <trkpt lat="27.935095997527242" lon="-15.731412023305893">
        <ele>1053.8820000000001</ele>
        <time>2013-03-12T14:44:10Z</time>
      </trkpt>
      <trkpt lat="27.935013016685843" lon="-15.731519982218742">
        <ele>1052.9269999999999</ele>
        <time>2013-03-12T14:44:12Z</time>
      </trkpt>
      <trkpt lat="27.93461998924613" lon="-15.73142996057868">
        <ele>1049.8009999999999</ele>
        <time>2013-03-12T14:44:17Z</time>
      </trkpt>
      <trkpt lat="27.934166025370359" lon="-15.731237009167671">
        <ele>1045.921</ele>
        <time>2013-03-12T14:44:22Z</time>
      </trkpt>
      <trkpt lat="27.933939965441823" lon="-15.731268022209406">
        <ele>1042.857</ele>
        <time>2013-03-12T14:44:25Z</time>
      </trkpt>
      <trkpt lat="27.933829994872212" lon="-15.731405988335609">
        <ele>1040.674</ele>
        <time>2013-03-12T14:44:27Z</time>
      </trkpt>
      <trkpt lat="27.933649029582739" lon="-15.731673035770655">
        <ele>1037.317</ele>
        <time>2013-03-12T14:44:30Z</time>
      </trkpt>
      <trkpt lat="27.933440990746021" lon="-15.731885014101863">
        <ele>1033.796</ele>
        <time>2013-03-12T14:44:33Z</time>
      </trkpt>
      <trkpt lat="27.933213002979755" lon="-15.731959026306868">
        <ele>1030.3040000000001</ele>
        <time>2013-03-12T14:44:36Z</time>
      </trkpt>
      <trkpt lat="27.933144019916654" lon="-15.731947962194681">
        <ele>1030.2950000000001</ele>
        <time>2013-03-12T14:44:37Z</time>
      </trkpt>
      <trkpt lat="27.932935981079936" lon="-15.731827011331916">
        <ele>1026.7629999999999</ele>
        <time>2013-03-12T14:44:40Z</time>
      </trkpt>
      <trkpt lat="27.932873032987118" lon="-15.731768002733588">
        <ele>1025.5940000000001</ele>
        <time>2013-03-12T14:44:41Z</time>
      </trkpt>
      <trkpt lat="27.932606991380453" lon="-15.731514031067491">
        <ele>1021.616</ele>
        <time>2013-03-12T14:44:45Z</time>
      </trkpt>
      <trkpt lat="27.93244899250567" lon="-15.731361983343959">
        <ele>1018.9930000000001</ele>
        <time>2013-03-12T14:44:48Z</time>
      </trkpt>
      <trkpt lat="27.932444969192147" lon="-15.731146987527609">
        <ele>1015.693</ele>
        <time>2013-03-12T14:44:54Z</time>
      </trkpt>
      <trkpt lat="27.93251596391201" lon="-15.731152016669512">
        <ele>1014.004</ele>
        <time>2013-03-12T14:47:38Z</time>
      </trkpt>
      <trkpt lat="27.932751998305321" lon="-15.731245977804065">
        <ele>1012.8440000000001</ele>
        <time>2013-03-12T14:47:43Z</time>
      </trkpt>
      <trkpt lat="27.933089034631848" lon="-15.731060989201069">
        <ele>1009.342</ele>
        <time>2013-03-12T14:47:49Z</time>
      </trkpt>
      <trkpt lat="27.933159023523331" lon="-15.730905001983047">
        <ele>1008.106</ele>
        <time>2013-03-12T14:47:51Z</time>
      </trkpt>
      <trkpt lat="27.933231024071574" lon="-15.730757983401418">
        <ele>1007.448</ele>
        <time>2013-03-12T14:47:53Z</time>
      </trkpt>
      <trkpt lat="27.933354992419481" lon="-15.7305689714849">
        <ele>1006.079</ele>
        <time>2013-03-12T14:47:56Z</time>
      </trkpt>
      <trkpt lat="27.933455994352698" lon="-15.730347018688917">
        <ele>1005.5410000000001</ele>
        <time>2013-03-12T14:47:59Z</time>
      </trkpt>
      <trkpt lat="27.933607036247849" lon="-15.730108972638845">
        <ele>1003.643</ele>
        <time>2013-03-12T14:48:03Z</time>
      </trkpt>
      <trkpt lat="27.933559007942677" lon="-15.729810995981097">
        <ele>1001.615</ele>
        <time>2013-03-12T14:48:08Z</time>
      </trkpt>
      <trkpt lat="27.933489019051194" lon="-15.729680992662907">
        <ele>1000.802</ele>
        <time>2013-03-12T14:48:10Z</time>
      </trkpt>
      <trkpt lat="27.933280980214477" lon="-15.729202972725034">
        <ele>997.46600000000001</ele>
        <time>2013-03-12T14:48:16Z</time>
      </trkpt>
      <trkpt lat="27.932989038527012" lon="-15.72904497385025">
        <ele>994.471</ele>
        <time>2013-03-12T14:48:21Z</time>
      </trkpt>
      <trkpt lat="27.932270960882306" lon="-15.728757977485657">
        <ele>991.58699999999999</ele>
        <time>2013-03-12T14:48:31Z</time>
      </trkpt>
      <trkpt lat="27.93212603777647" lon="-15.728166969493032">
        <ele>988.28599999999994</ele>
        <time>2013-03-12T14:48:39Z</time>
      </trkpt>
      <trkpt lat="27.932279007509351" lon="-15.727924983948469">
        <ele>985.82500000000005</ele>
        <time>2013-03-12T14:48:42Z</time>
      </trkpt>
      <trkpt lat="27.93240699917078" lon="-15.72777503170073">
        <ele>983.89400000000001</ele>
        <time>2013-03-12T14:48:44Z</time>
      </trkpt>
      <trkpt lat="27.932647978886962" lon="-15.727618960663676">
        <ele>980.89400000000001</ele>
        <time>2013-03-12T14:48:47Z</time>
      </trkpt>
      <trkpt lat="27.932817041873932" lon="-15.727589959278703">
        <ele>979.78700000000003</ele>
        <time>2013-03-12T14:48:49Z</time>
      </trkpt>
      <trkpt lat="27.932890970259905" lon="-15.727595994248986">
        <ele>978.745</ele>
        <time>2013-03-12T14:48:50Z</time>
      </trkpt>
      <trkpt lat="27.932957019656897" lon="-15.727601023390889">
        <ele>977.64700000000005</ele>
        <time>2013-03-12T14:48:51Z</time>
      </trkpt>
      <trkpt lat="27.933080988004804" lon="-15.72749700397253">
        <ele>974.58699999999999</ele>
        <time>2013-03-12T14:48:54Z</time>
      </trkpt>
      <trkpt lat="27.933062966912985" lon="-15.727204978466034">
        <ele>971.29100000000005</ele>
        <time>2013-03-12T14:48:58Z</time>
      </trkpt>
      <trkpt lat="27.933210991322994" lon="-15.726767024025321">
        <ele>968.20899999999995</ele>
        <time>2013-03-12T14:49:03Z</time>
      </trkpt>
      <trkpt lat="27.933361027389765" lon="-15.726621011272073">
        <ele>966.81700000000001</ele>
        <time>2013-03-12T14:49:05Z</time>
      </trkpt>
      <trkpt lat="27.933693034574389" lon="-15.726324040442705">
        <ele>963.54600000000005</ele>
        <time>2013-03-12T14:49:09Z</time>
      </trkpt>
      <trkpt lat="27.933909958228469" lon="-15.72607702575624">
        <ele>961.08000000000004</ele>
        <time>2013-03-12T14:49:12Z</time>
      </trkpt>
      <trkpt lat="27.934016995131969" lon="-15.72588499635458">
        <ele>960.279</ele>
        <time>2013-03-12T14:49:14Z</time>
      </trkpt>
      <trkpt lat="27.934082960709929" lon="-15.725663965567946">
        <ele>958.41999999999996</ele>
        <time>2013-03-12T14:49:16Z</time>
      </trkpt>
      <trkpt lat="27.934143980965018" lon="-15.725458022207022">
        <ele>956.85000000000002</ele>
        <time>2013-03-12T14:49:18Z</time>
      </trkpt>
      <trkpt lat="27.934209024533629" lon="-15.725302034988999">
        <ele>954.97900000000004</ele>
        <time>2013-03-12T14:49:20Z</time>
      </trkpt>
      <trkpt lat="27.933972990140319" lon="-15.725031970068812">
        <ele>951.61300000000006</ele>
        <time>2013-03-12T14:49:26Z</time>
      </trkpt>
      <trkpt lat="27.933766962960362" lon="-15.725188041105866">
        <ele>950.74699999999996</ele>
        <time>2013-03-12T14:49:30Z</time>
      </trkpt>
      <trkpt lat="27.933628996834159" lon="-15.725351991131902">
        <ele>950.98500000000001</ele>
        <time>2013-03-12T14:49:33Z</time>
      </trkpt>
      <trkpt lat="27.933417018502951" lon="-15.725461961701512">
        <ele>952.08100000000002</ele>
        <time>2013-03-12T14:49:37Z</time>
      </trkpt>
      <trkpt lat="27.932511018589139" lon="-15.725360037758946">
        <ele>954.38699999999994</ele>
        <time>2013-03-12T14:49:55Z</time>
      </trkpt>
      <trkpt lat="27.932461984455585" lon="-15.725349979475141">
        <ele>954.55100000000004</ele>
        <time>2013-03-12T14:49:56Z</time>
      </trkpt>
      <trkpt lat="27.932141963392496" lon="-15.725301029160619">
        <ele>954.75099999999998</ele>
        <time>2013-03-12T14:50:03Z</time>
      </trkpt>
      <trkpt lat="27.931944988667965" lon="-15.725178988650441">
        <ele>955.29999999999995</ele>
        <time>2013-03-12T14:50:08Z</time>
      </trkpt>
      <trkpt lat="27.93176201172173" lon="-15.724934991449118">
        <ele>955.71699999999998</ele>
        <time>2013-03-12T14:50:14Z</time>
      </trkpt>
      <trkpt lat="27.931680036708713" lon="-15.724788978695869">
        <ele>955.96900000000005</ele>
        <time>2013-03-12T14:50:17Z</time>
      </trkpt>
      <trkpt lat="27.931566964834929" lon="-15.724665010347962">
        <ele>956.21600000000001</ele>
        <time>2013-03-12T14:50:20Z</time>
      </trkpt>
      <trkpt lat="27.931054998189211" lon="-15.724403997883201">
        <ele>957.57399999999996</ele>
        <time>2013-03-12T14:50:31Z</time>
      </trkpt>
      <trkpt lat="27.930984003469348" lon="-15.724211968481541">
        <ele>958.83299999999997</ele>
        <time>2013-03-12T14:50:35Z</time>
      </trkpt>
      <trkpt lat="27.930956007912755" lon="-15.724117001518607">
        <ele>959.49900000000002</ele>
        <time>2013-03-12T14:50:37Z</time>
      </trkpt>
      <trkpt lat="27.930676974356174" lon="-15.723614003509283">
        <ele>962.70699999999999</ele>
        <time>2013-03-12T14:50:49Z</time>
      </trkpt>
      <trkpt lat="27.930651996284723" lon="-15.723575027659535">
        <ele>963.03399999999999</ele>
        <time>2013-03-12T14:50:50Z</time>
      </trkpt>
      <trkpt lat="27.930275984108448" lon="-15.72350000962615">
        <ele>964.78099999999995</ele>
        <time>2013-03-12T14:51:00Z</time>
      </trkpt>
      <trkpt lat="27.930168025195599" lon="-15.723563041538">
        <ele>965.67700000000002</ele>
        <time>2013-03-12T14:51:03Z</time>
      </trkpt>
      <trkpt lat="27.929896032437682" lon="-15.723470002412796">
        <ele>967.09199999999998</ele>
        <time>2013-03-12T14:51:10Z</time>
      </trkpt>
      <trkpt lat="27.929710960015655" lon="-15.722892992198467">
        <ele>967.68499999999995</ele>
        <time>2013-03-12T14:51:28Z</time>
      </trkpt>
      <trkpt lat="27.929752031341195" lon="-15.722631979733706">
        <ele>966.34500000000003</ele>
        <time>2013-03-12T14:51:34Z</time>
      </trkpt>
      <trkpt lat="27.929809028282762" lon="-15.722496025264263">
        <ele>965.71500000000003</ele>
        <time>2013-03-12T14:51:37Z</time>
      </trkpt>
      <trkpt lat="27.929946994408965" lon="-15.722328973934054">
        <ele>964.77999999999997</ele>
        <time>2013-03-12T14:51:41Z</time>
      </trkpt>
      <trkpt lat="27.930156961083412" lon="-15.722173992544413">
        <ele>964.09299999999996</ele>
        <time>2013-03-12T14:51:45Z</time>
      </trkpt>
      <trkpt lat="27.930285958573222" lon="-15.722114983946085">
        <ele>963.56600000000003</ele>
        <time>2013-03-12T14:51:47Z</time>
      </trkpt>
      <trkpt lat="27.930498020723462" lon="-15.721909962594509">
        <ele>962.56399999999996</ele>
        <time>2013-03-12T14:51:51Z</time>
      </trkpt>
      <trkpt lat="27.930684015154839" lon="-15.721654985100031">
        <ele>961.67100000000005</ele>
        <time>2013-03-12T14:51:55Z</time>
      </trkpt>
      <trkpt lat="27.930774036794901" lon="-15.721346028149128">
        <ele>960.745</ele>
        <time>2013-03-12T14:51:59Z</time>
      </trkpt>
      <trkpt lat="27.930930024012923" lon="-15.720672039315104">
        <ele>957.97299999999996</ele>
        <time>2013-03-12T14:52:07Z</time>
      </trkpt>
      <trkpt lat="27.931378958746791" lon="-15.720272976905107">
        <ele>955.96500000000003</ele>
        <time>2013-03-12T14:52:14Z</time>
      </trkpt>
      <trkpt lat="27.931519020348787" lon="-15.720226038247347">
        <ele>955.16800000000001</ele>
        <time>2013-03-12T14:52:16Z</time>
      </trkpt>
      <trkpt lat="27.931765029206872" lon="-15.719964019954205">
        <ele>953.101</ele>
        <time>2013-03-12T14:52:21Z</time>
      </trkpt>
      <trkpt lat="27.931967033073306" lon="-15.719524975866079">
        <ele>950.63599999999997</ele>
        <time>2013-03-12T14:52:26Z</time>
      </trkpt>
      <trkpt lat="27.932377997785807" lon="-15.719179976731539">
        <ele>948.42600000000004</ele>
        <time>2013-03-12T14:52:32Z</time>
      </trkpt>
      <trkpt lat="27.93251596391201" lon="-15.71909599006176">
        <ele>948.11699999999996</ele>
        <time>2013-03-12T14:52:34Z</time>
      </trkpt>
      <trkpt lat="27.932662982493639" lon="-15.718691982328892">
        <ele>947.60400000000004</ele>
        <time>2013-03-12T14:52:40Z</time>
      </trkpt>
      <trkpt lat="27.932649990543723" lon="-15.718444967642426">
        <ele>947.62099999999998</ele>
        <time>2013-03-12T14:52:43Z</time>
      </trkpt>
      <trkpt lat="27.932889964431524" lon="-15.717872986570001">
        <ele>948.00699999999995</ele>
        <time>2013-03-12T14:52:50Z</time>
      </trkpt>
      <trkpt lat="27.932975962758064" lon="-15.717753041535616">
        <ele>947.78300000000002</ele>
        <time>2013-03-12T14:52:52Z</time>
      </trkpt>
      <trkpt lat="27.932894993573427" lon="-15.71750502102077">
        <ele>946.23800000000006</ele>
        <time>2013-03-12T14:52:58Z</time>
      </trkpt>
      <trkpt lat="27.9328359849751" lon="-15.717491023242474">
        <ele>945.923</ele>
        <time>2013-03-12T14:52:59Z</time>
      </trkpt>
      <trkpt lat="27.932615038007498" lon="-15.716972015798092">
        <ele>944.22699999999998</ele>
        <time>2013-03-12T14:53:07Z</time>
      </trkpt>
      <trkpt lat="27.932285964488983" lon="-15.717119034379721">
        <ele>943.096</ele>
        <time>2013-03-12T14:53:14Z</time>
      </trkpt>
      <trkpt lat="27.93191397562623" lon="-15.717450035735965">
        <ele>943.846</ele>
        <time>2013-03-12T14:53:22Z</time>
      </trkpt>
      <trkpt lat="27.931794030591846" lon="-15.717488005757332">
        <ele>943.97299999999996</ele>
        <time>2013-03-12T14:53:24Z</time>
      </trkpt>
      <trkpt lat="27.931557996198535" lon="-15.717979017645121">
        <ele>943.69000000000005</ele>
        <time>2013-03-12T14:53:31Z</time>
      </trkpt>
      <trkpt lat="27.93135498650372" lon="-15.718328040093184">
        <ele>943.69500000000005</ele>
        <time>2013-03-12T14:53:35Z</time>
      </trkpt>
      <trkpt lat="27.930789962410927" lon="-15.718480003997684">
        <ele>944.18100000000004</ele>
        <time>2013-03-12T14:53:44Z</time>
      </trkpt>
      <trkpt lat="27.930608997121453" lon="-15.717989997938275">
        <ele>944.76300000000003</ele>
        <time>2013-03-12T14:53:52Z</time>
      </trkpt>
      <trkpt lat="27.930464996024966" lon="-15.717649022117257">
        <ele>944.91600000000005</ele>
        <time>2013-03-12T14:53:57Z</time>
      </trkpt>
      <trkpt lat="27.930181017145514" lon="-15.717685986310244">
        <ele>943.90800000000002</ele>
        <time>2013-03-12T14:54:05Z</time>
      </trkpt>
      <trkpt lat="27.930184034630656" lon="-15.717748012393713">
        <ele>943.79200000000003</ele>
        <time>2013-03-12T14:54:06Z</time>
      </trkpt>
      <trkpt lat="27.929768040776253" lon="-15.718476986512542">
        <ele>944.66200000000003</ele>
        <time>2013-03-12T14:54:19Z</time>
      </trkpt>
      <trkpt lat="27.929436033591628" lon="-15.718951988965273">
        <ele>945.29600000000005</ele>
        <time>2013-03-12T14:54:32Z</time>
      </trkpt>
      <trkpt lat="27.929236041381955" lon="-15.719069000333548">
        <ele>946.23800000000006</ele>
        <time>2013-03-12T14:54:37Z</time>
      </trkpt>
      <trkpt lat="27.929063038900495" lon="-15.719137983396649">
        <ele>946.96400000000006</ele>
        <time>2013-03-12T14:54:41Z</time>
      </trkpt>
      <trkpt lat="27.928887018933892" lon="-15.719341998919845">
        <ele>947.78399999999999</ele>
        <time>2013-03-12T14:54:47Z</time>
      </trkpt>
      <trkpt lat="27.928640004247427" lon="-15.719833010807633">
        <ele>950.83100000000002</ele>
        <time>2013-03-12T14:55:00Z</time>
      </trkpt>
      <trkpt lat="27.928499020636082" lon="-15.720202988013625">
        <ele>953.87900000000002</ele>
        <time>2013-03-12T14:55:11Z</time>
      </trkpt>
      <trkpt lat="27.928082020953298" lon="-15.720065021887422">
        <ele>956.202</ele>
        <time>2013-03-12T14:55:26Z</time>
      </trkpt>
      <trkpt lat="27.927726041525602" lon="-15.719218030571938">
        <ele>959.24400000000003</ele>
        <time>2013-03-12T14:55:48Z</time>
      </trkpt>
      <trkpt lat="27.927702991291881" lon="-15.719094984233379">
        <ele>960.02200000000005</ele>
        <time>2013-03-12T14:55:51Z</time>
      </trkpt>
      <trkpt lat="27.927351035177708" lon="-15.719176959246397">
        <ele>962</ele>
        <time>2013-03-12T14:56:01Z</time>
      </trkpt>
      <trkpt lat="27.926554000005126" lon="-15.719962008297443">
        <ele>964.41099999999994</ele>
        <time>2013-03-12T14:56:24Z</time>
      </trkpt>
      <trkpt lat="27.926113028079271" lon="-15.719967959448695">
        <ele>964.71100000000001</ele>
        <time>2013-03-12T14:56:33Z</time>
      </trkpt>
      <trkpt lat="27.925295038148761" lon="-15.719603011384606">
        <ele>961.34000000000003</ele>
        <time>2013-03-12T14:56:46Z</time>
      </trkpt>
      <trkpt lat="27.925220020115376" lon="-15.71956998668611">
        <ele>960.78700000000003</ele>
        <time>2013-03-12T14:56:47Z</time>
      </trkpt>
      <trkpt lat="27.924947021529078" lon="-15.719308974221349">
        <ele>958.77499999999998</ele>
        <time>2013-03-12T14:56:51Z</time>
      </trkpt>
      <trkpt lat="27.924447041004896" lon="-15.718624005094171">
        <ele>956.18399999999997</ele>
        <time>2013-03-12T14:56:59Z</time>
      </trkpt>
      <trkpt lat="27.924232967197895" lon="-15.718420995399356">
        <ele>955.58799999999997</ele>
        <time>2013-03-12T14:57:02Z</time>
      </trkpt>
      <trkpt lat="27.923627961426973" lon="-15.717675006017089">
        <ele>953.50300000000004</ele>
        <time>2013-03-12T14:57:11Z</time>
      </trkpt>
      <trkpt lat="27.923143990337849" lon="-15.717359008267522">
        <ele>951.07799999999997</ele>
        <time>2013-03-12T14:57:17Z</time>
      </trkpt>
      <trkpt lat="27.922966964542866" lon="-15.717085003852844">
        <ele>950.17200000000003</ele>
        <time>2013-03-12T14:57:20Z</time>
      </trkpt>
      <trkpt lat="27.922797985374928" lon="-15.716516962274909">
        <ele>948.62800000000004</ele>
        <time>2013-03-12T14:57:26Z</time>
      </trkpt>
      <trkpt lat="27.92254401370883" lon="-15.716551998630166">
        <ele>947.96100000000001</ele>
        <time>2013-03-12T14:57:32Z</time>
      </trkpt>
      <trkpt lat="27.922520963475108" lon="-15.716605978086591">
        <ele>948.02499999999998</ele>
        <time>2013-03-12T14:57:33Z</time>
      </trkpt>
      <trkpt lat="27.922479975968599" lon="-15.716701028868556">
        <ele>948.03300000000002</ele>
        <time>2013-03-12T14:57:35Z</time>
      </trkpt>
      <trkpt lat="27.922291969880462" lon="-15.716833965852857">
        <ele>949.96299999999997</ele>
        <time>2013-03-12T14:57:41Z</time>
      </trkpt>
      <trkpt lat="27.922253999859095" lon="-15.716833965852857">
        <ele>950.375</ele>
        <time>2013-03-12T14:57:42Z</time>
      </trkpt>
      <trkpt lat="27.922051995992661" lon="-15.7167730294168">
        <ele>951.96299999999997</ele>
        <time>2013-03-12T14:57:47Z</time>
      </trkpt>
      <trkpt lat="27.921833982691169" lon="-15.716676972806454">
        <ele>953.00199999999995</ele>
        <time>2013-03-12T14:57:52Z</time>
      </trkpt>
      <trkpt lat="27.921614041551948" lon="-15.71686003357172">
        <ele>953.81200000000001</ele>
        <time>2013-03-12T14:57:59Z</time>
      </trkpt>
      <trkpt lat="27.921490995213389" lon="-15.717136971652508">
        <ele>955.24099999999999</ele>
        <time>2013-03-12T14:58:05Z</time>
      </trkpt>
      <trkpt lat="27.921091010794044" lon="-15.717007974162698">
        <ele>956.197</ele>
        <time>2013-03-12T14:58:15Z</time>
      </trkpt>
      <trkpt lat="27.920908033847809" lon="-15.71651796810329">
        <ele>956.16700000000003</ele>
        <time>2013-03-12T14:58:23Z</time>
      </trkpt>
      <trkpt lat="27.920928988605738" lon="-15.716246981173754">
        <ele>956.40499999999997</ele>
        <time>2013-03-12T14:58:27Z</time>
      </trkpt>
      <trkpt lat="27.920960001647472" lon="-15.716107003390789">
        <ele>956.50900000000001</ele>
        <time>2013-03-12T14:58:29Z</time>
      </trkpt>
      <trkpt lat="27.920805020257831" lon="-15.715640969574451">
        <ele>956.13499999999999</ele>
        <time>2013-03-12T14:58:36Z</time>
      </trkpt>
      <trkpt lat="27.920753974467516" lon="-15.71559201925993">
        <ele>956.14099999999996</ele>
        <time>2013-03-12T14:58:37Z</time>
      </trkpt>
      <trkpt lat="27.920556999742985" lon="-15.715065971016884">
        <ele>956.08799999999997</ele>
        <time>2013-03-12T14:58:44Z</time>
      </trkpt>
      <trkpt lat="27.920702006667852" lon="-15.714513016864657">
        <ele>954.08299999999997</ele>
        <time>2013-03-12T14:58:52Z</time>
      </trkpt>
      <trkpt lat="27.920514000579715" lon="-15.7144970074296">
        <ele>953.31799999999998</ele>
        <time>2013-03-12T14:58:55Z</time>
      </trkpt>
      <trkpt lat="27.920160032808781" lon="-15.714489966630936">
        <ele>953.89999999999998</ele>
        <time>2013-03-12T14:59:01Z</time>
      </trkpt>
      <trkpt lat="27.919995998963714" lon="-15.713957967236638">
        <ele>954.95600000000002</ele>
        <time>2013-03-12T14:59:09Z</time>
      </trkpt>
      <trkpt lat="27.920055007562041" lon="-15.713812038302422">
        <ele>954.79899999999998</ele>
        <time>2013-03-12T14:59:11Z</time>
      </trkpt>
      <trkpt lat="27.920090965926647" lon="-15.713740959763527">
        <ele>954.79200000000003</ele>
        <time>2013-03-12T14:59:12Z</time>
      </trkpt>
      <trkpt lat="27.920005973428488" lon="-15.713415993377566">
        <ele>954.12199999999996</ele>
        <time>2013-03-12T14:59:17Z</time>
      </trkpt>
      <trkpt lat="27.919951993972063" lon="-15.713369976729155">
        <ele>953.98099999999999</ele>
        <time>2013-03-12T14:59:18Z</time>
      </trkpt>
      <trkpt lat="27.919812016189098" lon="-15.713193034753203">
        <ele>953.952</ele>
        <time>2013-03-12T14:59:21Z</time>
      </trkpt>
      <trkpt lat="27.919567013159394" lon="-15.713021038100123">
        <ele>954.56700000000001</ele>
        <time>2013-03-12T14:59:25Z</time>
      </trkpt>
      <trkpt lat="27.919175997376442" lon="-15.712512005120516">
        <ele>956.17700000000002</ele>
        <time>2013-03-12T14:59:34Z</time>
      </trkpt>
      <trkpt lat="27.918974999338388" lon="-15.712393987923861">
        <ele>956.85400000000004</ele>
        <time>2013-03-12T14:59:38Z</time>
      </trkpt>
      <trkpt lat="27.918869974091649" lon="-15.71237001568079">
        <ele>957.26599999999996</ele>
        <time>2013-03-12T14:59:40Z</time>
      </trkpt>
      <trkpt lat="27.91880602017045" lon="-15.711910016834736">
        <ele>958.28899999999999</ele>
        <time>2013-03-12T14:59:50Z</time>
      </trkpt>
      <trkpt lat="27.91884901933372" lon="-15.711862994357944">
        <ele>958.26700000000005</ele>
        <time>2013-03-12T14:59:51Z</time>
      </trkpt>
      <trkpt lat="27.919067032635212" lon="-15.71161899715662">
        <ele>958.20100000000002</ele>
        <time>2013-03-12T14:59:56Z</time>
      </trkpt>
      <trkpt lat="27.919026967138052" lon="-15.711201997473836">
        <ele>958.66399999999999</ele>
        <time>2013-03-12T15:00:03Z</time>
      </trkpt>
      <trkpt lat="27.91895697824657" lon="-15.711089009419084">
        <ele>958.86900000000003</ele>
        <time>2013-03-12T15:00:05Z</time>
      </trkpt>
      <trkpt lat="27.919134004041553" lon="-15.710730012506247">
        <ele>960.28099999999995</ele>
        <time>2013-03-12T15:00:13Z</time>
      </trkpt>
      <trkpt lat="27.919646976515651" lon="-15.710562039166689">
        <ele>962.29999999999995</ele>
        <time>2013-03-12T15:00:24Z</time>
      </trkpt>
      <trkpt lat="27.91981696151197" lon="-15.710324998944998">
        <ele>963.43200000000002</ele>
        <time>2013-03-12T15:00:30Z</time>
      </trkpt>
      <trkpt lat="27.919873958453536" lon="-15.710134981200099">
        <ele>964.21000000000004</ele>
        <time>2013-03-12T15:00:34Z</time>
      </trkpt>
      <trkpt lat="27.919773040339351" lon="-15.70957699790597">
        <ele>967.21900000000005</ele>
        <time>2013-03-12T15:00:49Z</time>
      </trkpt>
      <trkpt lat="27.919568018987775" lon="-15.709223030135036">
        <ele>970.33000000000004</ele>
        <time>2013-03-12T15:01:05Z</time>
      </trkpt>
      <trkpt lat="27.91957899928093" lon="-15.709196962416172">
        <ele>970.75900000000001</ele>
        <time>2013-03-12T15:04:19Z</time>
      </trkpt>
      <trkpt lat="27.919704979285598" lon="-15.709139965474606">
        <ele>970.68899999999996</ele>
        <time>2013-03-12T15:04:24Z</time>
      </trkpt>
      <trkpt lat="27.919797012582421" lon="-15.709118004888296">
        <ele>970.72500000000002</ele>
        <time>2013-03-12T15:04:26Z</time>
      </trkpt>
      <trkpt lat="27.920031035318971" lon="-15.708972997963428">
        <ele>970.92399999999998</ele>
        <time>2013-03-12T15:04:31Z</time>
      </trkpt>
      <trkpt lat="27.920268997550011" lon="-15.708923963829875">
        <ele>970.62199999999996</ele>
        <time>2013-03-12T15:04:35Z</time>
      </trkpt>
      <trkpt lat="27.92039598338306" lon="-15.708934022113681">
        <ele>970.38699999999994</ele>
        <time>2013-03-12T15:04:37Z</time>
      </trkpt>
      <trkpt lat="27.920663030818105" lon="-15.708765964955091">
        <ele>970.36300000000006</ele>
        <time>2013-03-12T15:04:42Z</time>
      </trkpt>
      <trkpt lat="27.920756991952658" lon="-15.708657000213861">
        <ele>970.30700000000002</ele>
        <time>2013-03-12T15:04:44Z</time>
      </trkpt>
      <trkpt lat="27.921012975275517" lon="-15.708652976900339">
        <ele>969.69600000000003</ele>
        <time>2013-03-12T15:04:48Z</time>
      </trkpt>
      <trkpt lat="27.921079024672508" lon="-15.708689019083977">
        <ele>969.42700000000002</ele>
        <time>2013-03-12T15:04:49Z</time>
      </trkpt>
      <trkpt lat="27.921498036012053" lon="-15.708769988268614">
        <ele>966.62800000000004</ele>
        <time>2013-03-12T15:04:55Z</time>
      </trkpt>
      <trkpt lat="27.921760976314545" lon="-15.708640990778804">
        <ele>964.53099999999995</ele>
        <time>2013-03-12T15:04:59Z</time>
      </trkpt>
      <trkpt lat="27.921820990741253" lon="-15.708595979958773">
        <ele>964.154</ele>
        <time>2013-03-12T15:05:00Z</time>
      </trkpt>
      <trkpt lat="27.921902965754271" lon="-15.708164982497692">
        <ele>961.95500000000004</ele>
        <time>2013-03-12T15:05:06Z</time>
      </trkpt>
      <trkpt lat="27.921884022653103" lon="-15.708092981949449">
        <ele>961.73800000000006</ele>
        <time>2013-03-12T15:05:07Z</time>
      </trkpt>
      <trkpt lat="27.922094995155931" lon="-15.707892989739776">
        <ele>960.94200000000001</ele>
        <time>2013-03-12T15:05:13Z</time>
      </trkpt>
      <trkpt lat="27.922309990972281" lon="-15.707853008061647">
        <ele>960.50599999999997</ele>
        <time>2013-03-12T15:05:16Z</time>
      </trkpt>
      <trkpt lat="27.922564968466759" lon="-15.707372976467013">
        <ele>960.63900000000001</ele>
        <time>2013-03-12T15:05:25Z</time>
      </trkpt>
      <trkpt lat="27.922417027875781" lon="-15.707006016746163">
        <ele>959.99000000000001</ele>
        <time>2013-03-12T15:05:30Z</time>
      </trkpt>
      <trkpt lat="27.922390038147569" lon="-15.706841982901096">
        <ele>959.59900000000005</ele>
        <time>2013-03-12T15:05:32Z</time>
      </trkpt>
      <trkpt lat="27.922224998474121" lon="-15.706295985728502">
        <ele>958.19600000000003</ele>
        <time>2013-03-12T15:05:39Z</time>
      </trkpt>
      <trkpt lat="27.922298004850745" lon="-15.705989040434361">
        <ele>956.08199999999999</ele>
        <time>2013-03-12T15:05:44Z</time>
      </trkpt>
      <trkpt lat="27.922336980700493" lon="-15.705943023785949">
        <ele>955.59199999999998</ele>
        <time>2013-03-12T15:05:45Z</time>
      </trkpt>
      <trkpt lat="27.922306973487139" lon="-15.705571034923196">
        <ele>952.49199999999996</ele>
        <time>2013-03-12T15:05:51Z</time>
      </trkpt>
      <trkpt lat="27.921902965754271" lon="-15.705324020236731">
        <ele>950.32600000000002</ele>
        <time>2013-03-12T15:05:57Z</time>
      </trkpt>
      <trkpt lat="27.921830965206027" lon="-15.705298958346248">
        <ele>950.00999999999999</ele>
        <time>2013-03-12T15:05:58Z</time>
      </trkpt>
      <trkpt lat="27.921812022104859" lon="-15.704867960885167">
        <ele>947.77700000000004</ele>
        <time>2013-03-12T15:06:06Z</time>
      </trkpt>
      <trkpt lat="27.921932972967625" lon="-15.704785985872149">
        <ele>947.43799999999999</ele>
        <time>2013-03-12T15:06:08Z</time>
      </trkpt>
      <trkpt lat="27.921996004879475" lon="-15.704747010022402">
        <ele>947.30100000000004</ele>
        <time>2013-03-12T15:06:09Z</time>
      </trkpt>
      <trkpt lat="27.92194202542305" lon="-15.704341996461153">
        <ele>947.16700000000003</ele>
        <time>2013-03-12T15:06:16Z</time>
      </trkpt>
      <trkpt lat="27.921871030703187" lon="-15.704337973147631">
        <ele>947.36699999999996</ele>
        <time>2013-03-12T15:06:17Z</time>
      </trkpt>
      <trkpt lat="27.921802969649434" lon="-15.704331016167998">
        <ele>947.60400000000004</ele>
        <time>2013-03-12T15:06:18Z</time>
      </trkpt>
      <trkpt lat="27.921572970226407" lon="-15.704229008406401">
        <ele>948.66300000000001</ele>
        <time>2013-03-12T15:06:22Z</time>
      </trkpt>
      <trkpt lat="27.921604989096522" lon="-15.70373103953898">
        <ele>950.89999999999998</ele>
        <time>2013-03-12T15:06:31Z</time>
      </trkpt>
      <trkpt lat="27.921660980209708" lon="-15.70368804037571">
        <ele>950.83699999999999</ele>
        <time>2013-03-12T15:06:32Z</time>
      </trkpt>
      <trkpt lat="27.921720994636416" lon="-15.703643029555678">
        <ele>950.70899999999995</ele>
        <time>2013-03-12T15:06:33Z</time>
      </trkpt>
      <trkpt lat="27.921850997954607" lon="-15.703285038471222">
        <ele>949.13999999999999</ele>
        <time>2013-03-12T15:06:38Z</time>
      </trkpt>
      <trkpt lat="27.921804981306195" lon="-15.702629992738366">
        <ele>948.72400000000005</ele>
        <time>2013-03-12T15:06:47Z</time>
      </trkpt>
      <trkpt lat="27.921955017372966" lon="-15.702282981947064">
        <ele>949.84000000000003</ele>
        <time>2013-03-12T15:06:53Z</time>
      </trkpt>
      <trkpt lat="27.922472013160586" lon="-15.701598012819886">
        <ele>952.42899999999997</ele>
        <time>2013-03-12T15:07:06Z</time>
      </trkpt>
      <trkpt lat="27.922708969563246" lon="-15.701493993401527">
        <ele>951.87599999999998</ele>
        <time>2013-03-12T15:07:10Z</time>
      </trkpt>
      <trkpt lat="27.922849031165242" lon="-15.701445965096354">
        <ele>951.58600000000001</ele>
        <time>2013-03-12T15:07:12Z</time>
      </trkpt>
      <trkpt lat="27.923077018931508" lon="-15.701224012300372">
        <ele>950.50699999999995</ele>
        <time>2013-03-12T15:07:16Z</time>
      </trkpt>
      <trkpt lat="27.923281034454703" lon="-15.700946990400553">
        <ele>948.60400000000004</ele>
        <time>2013-03-12T15:07:20Z</time>
      </trkpt>
      <trkpt lat="27.923647994175553" lon="-15.700782034546137">
        <ele>945.32000000000005</ele>
        <time>2013-03-12T15:07:25Z</time>
      </trkpt>
      <trkpt lat="27.923734998330474" lon="-15.700787985697389">
        <ele>944.55200000000002</ele>
        <time>2013-03-12T15:07:26Z</time>
      </trkpt>
      <trkpt lat="27.923910012468696" lon="-15.700802989304066">
        <ele>942.80499999999995</ele>
        <time>2013-03-12T15:07:28Z</time>
      </trkpt>
      <trkpt lat="27.924127019941807" lon="-15.700553962960839">
        <ele>939.52800000000002</ele>
        <time>2013-03-12T15:07:34Z</time>
      </trkpt>
      <trkpt lat="27.923964997753501" lon="-15.700487997382879">
        <ele>939.30399999999997</ele>
        <time>2013-03-12T15:07:37Z</time>
      </trkpt>
      <trkpt lat="27.923798030242324" lon="-15.700411973521113">
        <ele>939.59500000000003</ele>
        <time>2013-03-12T15:07:40Z</time>
      </trkpt>
      <trkpt lat="27.923612035810947" lon="-15.700257997959852">
        <ele>940.94600000000003</ele>
        <time>2013-03-12T15:07:44Z</time>
      </trkpt>
      <trkpt lat="27.923397039994597" lon="-15.700007965788245">
        <ele>943.08399999999995</ele>
        <time>2013-03-12T15:07:49Z</time>
      </trkpt>
      <trkpt lat="27.923323027789593" lon="-15.699584009125829">
        <ele>944.74900000000002</ele>
        <time>2013-03-12T15:07:56Z</time>
      </trkpt>
      <trkpt lat="27.923572976142168" lon="-15.698492014780641">
        <ele>943.60799999999995</ele>
        <time>2013-03-12T15:08:08Z</time>
      </trkpt>
      <trkpt lat="27.923945970833302" lon="-15.69812698289752">
        <ele>941.72000000000003</ele>
        <time>2013-03-12T15:08:14Z</time>
      </trkpt>
      <trkpt lat="27.92439398355782" lon="-15.69801801815629">
        <ele>938.99099999999999</ele>
        <time>2013-03-12T15:08:19Z</time>
      </trkpt>
      <trkpt lat="27.92471400462091" lon="-15.697829006239772">
        <ele>935.95799999999997</ele>
        <time>2013-03-12T15:08:23Z</time>
      </trkpt>
      <trkpt lat="27.924775024875998" lon="-15.697777960449457">
        <ele>934.971</ele>
        <time>2013-03-12T15:08:24Z</time>
      </trkpt>
      <trkpt lat="27.924847025424242" lon="-15.69758702069521">
        <ele>933.33799999999997</ele>
        <time>2013-03-12T15:08:27Z</time>
      </trkpt>
      <trkpt lat="27.924825986847281" lon="-15.697506973519921">
        <ele>932.41099999999994</ele>
        <time>2013-03-12T15:08:28Z</time>
      </trkpt>
      <trkpt lat="27.924806037917733" lon="-15.697418041527271">
        <ele>931.46199999999999</ele>
        <time>2013-03-12T15:08:29Z</time>
      </trkpt>
      <trkpt lat="27.924884995445609" lon="-15.697043035179377">
        <ele>928.12300000000005</ele>
        <time>2013-03-12T15:08:33Z</time>
      </trkpt>
      <trkpt lat="27.925206022337079" lon="-15.696798032149673">
        <ele>924.77499999999998</ele>
        <time>2013-03-12T15:08:37Z</time>
      </trkpt>
      <trkpt lat="27.925585974007845" lon="-15.696807000786066">
        <ele>921.28399999999999</ele>
        <time>2013-03-12T15:08:41Z</time>
      </trkpt>
      <trkpt lat="27.92574598453939" lon="-15.696787973865867">
        <ele>919.42999999999995</ele>
        <time>2013-03-12T15:08:43Z</time>
      </trkpt>
      <trkpt lat="27.925919992849231" lon="-15.696728965267539">
        <ele>917.67399999999998</ele>
        <time>2013-03-12T15:08:45Z</time>
      </trkpt>
      <trkpt lat="27.926179999485612" lon="-15.696726031601429">
        <ele>915.30100000000004</ele>
        <time>2013-03-12T15:08:48Z</time>
      </trkpt>
      <trkpt lat="27.926375968381763" lon="-15.696417996659875">
        <ele>912.44299999999998</ele>
        <time>2013-03-12T15:08:54Z</time>
      </trkpt>
      <trkpt lat="27.926365993916988" lon="-15.696177016943693">
        <ele>911.50599999999997</ele>
        <time>2013-03-12T15:08:57Z</time>
      </trkpt>
      <trkpt lat="27.926379991695285" lon="-15.695593971759081">
        <ele>910.93100000000004</ele>
        <time>2013-03-12T15:09:05Z</time>
      </trkpt>
      <trkpt lat="27.926308996975422" lon="-15.69537503644824">
        <ele>910.90999999999997</ele>
        <time>2013-03-12T15:09:08Z</time>
      </trkpt>
      <trkpt lat="27.926320983096957" lon="-15.695008998736739">
        <ele>911.70399999999995</ele>
        <time>2013-03-12T15:09:13Z</time>
      </trkpt>
      <trkpt lat="27.926758015528321" lon="-15.694724014028907">
        <ele>913.005</ele>
        <time>2013-03-12T15:09:21Z</time>
      </trkpt>
      <trkpt lat="27.927236035466194" lon="-15.694641033187509">
        <ele>912.35900000000004</ele>
        <time>2013-03-12T15:09:27Z</time>
      </trkpt>
      <trkpt lat="27.927549015730619" lon="-15.69471001625061">
        <ele>910.33199999999999</ele>
        <time>2013-03-12T15:09:31Z</time>
      </trkpt>
      <trkpt lat="27.92761598713696" lon="-15.694743962958455">
        <ele>909.721</ele>
        <time>2013-03-12T15:09:32Z</time>
      </trkpt>
      <trkpt lat="27.927857972681522" lon="-15.69462301209569">
        <ele>906.65499999999997</ele>
        <time>2013-03-12T15:09:36Z</time>
      </trkpt>
      <trkpt lat="27.927915975451469" lon="-15.694349007681012">
        <ele>904.58600000000001</ele>
        <time>2013-03-12T15:09:39Z</time>
      </trkpt>
      <trkpt lat="27.927932990714908" lon="-15.694159995764494">
        <ele>903.18799999999999</ele>
        <time>2013-03-12T15:09:41Z</time>
      </trkpt>
      <trkpt lat="27.927973978221416" lon="-15.694017000496387">
        <ele>902.54300000000001</ele>
        <time>2013-03-12T15:09:43Z</time>
      </trkpt>
      <trkpt lat="27.928198026493192" lon="-15.694009959697723">
        <ele>900.49199999999996</ele>
        <time>2013-03-12T15:09:47Z</time>
      </trkpt>
      <trkpt lat="27.928267009556293" lon="-15.694047007709742">
        <ele>899.94200000000001</ele>
        <time>2013-03-12T15:09:48Z</time>
      </trkpt>
      <trkpt lat="27.928418973460793" lon="-15.694105010479689">
        <ele>899.22500000000002</ele>
        <time>2013-03-12T15:09:50Z</time>
      </trkpt>
      <trkpt lat="27.928713010624051" lon="-15.694330986589193">
        <ele>898.31700000000001</ele>
        <time>2013-03-12T15:09:54Z</time>
      </trkpt>
      <trkpt lat="27.929172003641725" lon="-15.694633992388844">
        <ele>896.86500000000001</ele>
        <time>2013-03-12T15:10:00Z</time>
      </trkpt>
      <trkpt lat="27.929454976692796" lon="-15.694628963246942">
        <ele>895.27599999999995</ele>
        <time>2013-03-12T15:10:04Z</time>
      </trkpt>
      <trkpt lat="27.929690005257726" lon="-15.694598034024239">
        <ele>894.21199999999999</ele>
        <time>2013-03-12T15:10:07Z</time>
      </trkpt>
      <trkpt lat="27.930096024647355" lon="-15.694353030994534">
        <ele>892.59000000000003</ele>
        <time>2013-03-12T15:10:13Z</time>
      </trkpt>
      <trkpt lat="27.930453009903431" lon="-15.694297039881349">
        <ele>891.85299999999995</ele>
        <time>2013-03-12T15:10:18Z</time>
      </trkpt>
      <trkpt lat="27.930479999631643" lon="-15.693925973027945">
        <ele>891.75400000000002</ele>
        <time>2013-03-12T15:10:25Z</time>
      </trkpt>
      <trkpt lat="27.930403975769877" lon="-15.693791024386883">
        <ele>891.69899999999996</ele>
        <time>2013-03-12T15:10:27Z</time>
      </trkpt>
      <trkpt lat="27.930332981050014" lon="-15.693574016913772">
        <ele>891.77300000000002</ele>
        <time>2013-03-12T15:10:30Z</time>
      </trkpt>
      <trkpt lat="27.930435994639993" lon="-15.693250978365541">
        <ele>893.58299999999997</ele>
        <time>2013-03-12T15:10:37Z</time>
      </trkpt>
      <trkpt lat="27.930750986561179" lon="-15.692907990887761">
        <ele>896.68499999999995</ele>
        <time>2013-03-12T15:10:50Z</time>
      </trkpt>
      <trkpt lat="27.931020967662334" lon="-15.692613031715155">
        <ele>899.846</ele>
        <time>2013-03-12T15:11:05Z</time>
      </trkpt>
      <trkpt lat="27.931344006210566" lon="-15.692250011488795">
        <ele>902.70600000000002</ele>
        <time>2013-03-12T15:11:23Z</time>
      </trkpt>
      <trkpt lat="27.931746002286673" lon="-15.691880034282804">
        <ele>905.73299999999995</ele>
        <time>2013-03-12T15:11:39Z</time>
      </trkpt>
      <trkpt lat="27.931409971788526" lon="-15.691455993801355">
        <ele>907.63800000000003</ele>
        <time>2013-03-12T15:11:54Z</time>
      </trkpt>
      <trkpt lat="27.930976040661335" lon="-15.691556995734572">
        <ele>910.40899999999999</ele>
        <time>2013-03-12T15:12:09Z</time>
      </trkpt>
      <trkpt lat="27.930462984368205" lon="-15.691614998504519">
        <ele>913.52999999999997</ele>
        <time>2013-03-12T15:12:24Z</time>
      </trkpt>
      <trkpt lat="27.929929979145527" lon="-15.691627990454435">
        <ele>916.75800000000004</ele>
        <time>2013-03-12T15:12:41Z</time>
      </trkpt>
      <trkpt lat="27.929538041353226" lon="-15.69185103289783">
        <ele>919.899</ele>
        <time>2013-03-12T15:12:55Z</time>
      </trkpt>
      <trkpt lat="27.929157000035048" lon="-15.691646011546254">
        <ele>921.21799999999996</ele>
        <time>2013-03-12T15:13:08Z</time>
      </trkpt>
      <trkpt lat="27.928764978423715" lon="-15.691777020692825">
        <ele>924.41999999999996</ele>
        <time>2013-03-12T15:13:22Z</time>
      </trkpt>
      <trkpt lat="27.928421990945935" lon="-15.691498992964625">
        <ele>927.62</ele>
        <time>2013-03-12T15:13:36Z</time>
      </trkpt>
      <trkpt lat="27.927912035956979" lon="-15.691506033763289">
        <ele>929.92499999999995</ele>
        <time>2013-03-12T15:13:52Z</time>
      </trkpt>
      <trkpt lat="27.927436027675867" lon="-15.691769979894161">
        <ele>933.077</ele>
        <time>2013-03-12T15:14:09Z</time>
      </trkpt>
      <trkpt lat="27.927098991349339" lon="-15.691265976056457">
        <ele>935.88</ele>
        <time>2013-03-12T15:14:26Z</time>
      </trkpt>
      <trkpt lat="27.926779976114631" lon="-15.690847970545292">
        <ele>939.10199999999998</ele>
        <time>2013-03-12T15:14:42Z</time>
      </trkpt>
      <trkpt lat="27.926536984741688" lon="-15.690567009150982">
        <ele>942.19600000000003</ele>
        <time>2013-03-12T15:14:54Z</time>
      </trkpt>
      <trkpt lat="27.926173964515328" lon="-15.690173981711268">
        <ele>945.37900000000002</ele>
        <time>2013-03-12T15:15:12Z</time>
      </trkpt>
      <trkpt lat="27.925632996484637" lon="-15.690332986414433">
        <ele>948.47199999999998</ele>
        <time>2013-03-12T15:15:29Z</time>
      </trkpt>
      <trkpt lat="27.925252038985491" lon="-15.69028303027153">
        <ele>951.56500000000005</ele>
        <time>2013-03-12T15:15:44Z</time>
      </trkpt>
      <trkpt lat="27.925083981826901" lon="-15.689794030040503">
        <ele>954.72699999999998</ele>
        <time>2013-03-12T15:16:01Z</time>
      </trkpt>
      <trkpt lat="27.924966970458627" lon="-15.689469985663891">
        <ele>957.75900000000001</ele>
        <time>2013-03-12T15:16:13Z</time>
      </trkpt>
      <trkpt lat="27.924667987972498" lon="-15.689238980412483">
        <ele>960.88300000000004</ele>
        <time>2013-03-12T15:16:28Z</time>
      </trkpt>
      <trkpt lat="27.924412004649639" lon="-15.689278040081263">
        <ele>963.96600000000001</ele>
        <time>2013-03-12T15:16:39Z</time>
      </trkpt>
      <trkpt lat="27.924099024385214" lon="-15.689078969880939">
        <ele>967.16099999999994</ele>
        <time>2013-03-12T15:16:53Z</time>
      </trkpt>
      <trkpt lat="27.923755031079054" lon="-15.688872020691633">
        <ele>970.27499999999998</ele>
        <time>2013-03-12T15:17:08Z</time>
      </trkpt>
      <trkpt lat="27.923315986990929" lon="-15.688775964081287">
        <ele>973.44899999999996</ele>
        <time>2013-03-12T15:17:25Z</time>
      </trkpt>
      <trkpt lat="27.923142984509468" lon="-15.688556022942066">
        <ele>976.61900000000003</ele>
        <time>2013-03-12T15:17:37Z</time>
      </trkpt>
      <trkpt lat="27.922902004793286" lon="-15.688409004360437">
        <ele>979.71199999999999</ele>
        <time>2013-03-12T15:17:49Z</time>
      </trkpt>
      <trkpt lat="27.922605033963919" lon="-15.688304984942079">
        <ele>982.95500000000004</ele>
        <time>2013-03-12T15:18:03Z</time>
      </trkpt>
      <trkpt lat="27.922202032059431" lon="-15.688145980238914">
        <ele>986.15499999999997</ele>
        <time>2013-03-12T15:18:20Z</time>
      </trkpt>
      <trkpt lat="27.921961974352598" lon="-15.687819002196193">
        <ele>989.39499999999998</ele>
        <time>2013-03-12T15:18:35Z</time>
      </trkpt>
    </trkseg>
  </trk>

</gpx>
